DLH718 EDDM-RKSI
Flight info
| Callsign | DLH718 |
|---|---|
| Flight time | N/A |
| Altitude | 35000 |
| Route | KIRDI4N KIRDI DCT BUWOQ DCT OBFEZ/N0481F350 DCT STEIN DCT TEGRI/N0482F370 DCT UDROS UN743 GAKSU UT310 SIN UN644 ROLIN DCT TAGAR DCT BT DCT BARAD M747 SUBUT T916 BALUN/K0891F390 T916 PIGAL M610 RULAD/K0883S1190 A343 POSOT B215 FKG W188 BATUS/K0889S1250 W188 LIKMI W270 DKO W69 HUR B339 LADIX W34 VAPGU W100 ORAVA W201 UNSEK A326 DONVO G597 AGAVO/N0482F410 Y644 REBIT REBIT2H |
| Aircraft | A359/H-SADE2E3GHIJ1J2J3J4J5M1P2RWXYZ/LB1D1 |
Departure
| Time | 2026-05-05 02:27 |
|---|---|
| Airport | Munich Airport (EDDM) |
Arrival
| Time | N/A |
|---|---|
| Airport | Incheon International Airport (RKSI) |
| Time | Latitude | Longitude | Altitude | Speed | Heading |
|---|---|---|---|---|---|
| 2026-05-05 01:58 | 48.35842 | 11.79255 | 1491 ft | 0 kts | 263° |
| 2026-05-05 02:14 | 48.35842 | 11.79258 | 1491 ft | 2 kts | 263° |
| 2026-05-05 02:14 | 48.35845 | 11.79297 | 1483 ft | 4 kts | 263° |
| 2026-05-05 02:15 | 48.35848 | 11.79328 | 1476 ft | 4 kts | 266° |
| 2026-05-05 02:15 | 48.35847 | 11.79363 | 1476 ft | 4 kts | 295° |
| 2026-05-05 02:15 | 48.35837 | 11.79384 | 1476 ft | 4 kts | 340° |
| 2026-05-05 02:15 | 48.35815 | 11.79391 | 1478 ft | 4 kts | 353° |
| 2026-05-05 02:16 | 48.35796 | 11.79395 | 1476 ft | 1 kts | 353° |
| 2026-05-05 02:18 | 48.35800 | 11.79394 | 1476 ft | 2 kts | 353° |
| 2026-05-05 02:19 | 48.35833 | 11.79386 | 1476 ft | 8 kts | 353° |
| 2026-05-05 02:19 | 48.35900 | 11.79370 | 1481 ft | 9 kts | 333° |
| 2026-05-05 02:19 | 48.35961 | 11.79339 | 1490 ft | 10 kts | 354° |
| 2026-05-05 02:19 | 48.36030 | 11.79326 | 1478 ft | 11 kts | 353° |
| 2026-05-05 02:20 | 48.36090 | 11.79365 | 1477 ft | 10 kts | 59° |
| 2026-05-05 02:20 | 48.36104 | 11.79467 | 1481 ft | 10 kts | 82° |
| 2026-05-05 02:20 | 48.36114 | 11.79580 | 1491 ft | 11 kts | 83° |
| 2026-05-05 02:20 | 48.36123 | 11.79701 | 1478 ft | 12 kts | 83° |
| 2026-05-05 02:21 | 48.36133 | 11.79829 | 1488 ft | 13 kts | 83° |
| 2026-05-05 02:21 | 48.36143 | 11.79965 | 1484 ft | 13 kts | 83° |
| 2026-05-05 02:21 | 48.36154 | 11.80108 | 1488 ft | 14 kts | 82° |
| 2026-05-05 02:21 | 48.36165 | 11.80257 | 1478 ft | 15 kts | 84° |
| 2026-05-05 02:22 | 48.36176 | 11.80412 | 1481 ft | 15 kts | 84° |
| 2026-05-05 02:22 | 48.36188 | 11.80573 | 1491 ft | 16 kts | 83° |
| 2026-05-05 02:22 | 48.36203 | 11.80738 | 1491 ft | 16 kts | 83° |
| 2026-05-05 02:22 | 48.36216 | 11.80908 | 1485 ft | 17 kts | 83° |
| 2026-05-05 02:23 | 48.36229 | 11.81083 | 1489 ft | 17 kts | 83° |
| 2026-05-05 02:23 | 48.36243 | 11.81262 | 1486 ft | 17 kts | 83° |
| 2026-05-05 02:23 | 48.36257 | 11.81445 | 1491 ft | 18 kts | 83° |
| 2026-05-05 02:23 | 48.36271 | 11.81632 | 1486 ft | 18 kts | 83° |
| 2026-05-05 02:24 | 48.36286 | 11.81822 | 1488 ft | 18 kts | 83° |
| 2026-05-05 02:24 | 48.36301 | 11.82015 | 1491 ft | 19 kts | 83° |
| 2026-05-05 02:24 | 48.36318 | 11.82211 | 1484 ft | 19 kts | 75° |
| 2026-05-05 02:24 | 48.36417 | 11.82304 | 1488 ft | 18 kts | 2° |
| 2026-05-05 02:25 | 48.36539 | 11.82279 | 1476 ft | 18 kts | 338° |
| 2026-05-05 02:25 | 48.36625 | 11.82152 | 1478 ft | 18 kts | 308° |
| 2026-05-05 02:25 | 48.36681 | 11.82046 | 1478 ft | 8 kts | 277° |
| 2026-05-05 02:25 | 48.36679 | 11.82005 | 1481 ft | 0 kts | 263° |
| 2026-05-05 02:26 | 48.36678 | 11.81982 | 1482 ft | 12 kts | 264° |
| 2026-05-05 02:26 | 48.36655 | 11.81665 | 1485 ft | 58 kts | 263° |
| 2026-05-05 02:26 | 48.36584 | 11.80758 | 1492 ft | 115 kts | 263° |
| 2026-05-05 02:26 | 48.36468 | 11.79303 | 1492 ft | 164 kts | 263° |
| 2026-05-05 02:27 | 48.36366 | 11.77510 | 1950 ft | 171 kts | 266° |
| 2026-05-05 02:27 | 48.36306 | 11.75706 | 2598 ft | 173 kts | 268° |
| 2026-05-05 02:27 | 48.36203 | 11.73856 | 2996 ft | 184 kts | 265° |
| 2026-05-05 02:27 | 48.35783 | 11.71984 | 3234 ft | 198 kts | 240° |
| 2026-05-05 02:28 | 48.34680 | 11.70659 | 3418 ft | 214 kts | 201° |
| 2026-05-05 02:28 | 48.33153 | 11.70469 | 3711 ft | 226 kts | 175° |
| 2026-05-05 02:28 | 48.31590 | 11.70630 | 4345 ft | 224 kts | 180° |
| 2026-05-05 02:28 | 48.30042 | 11.70599 | 4980 ft | 222 kts | 182° |
| 2026-05-05 02:29 | 48.28509 | 11.70905 | 5506 ft | 225 kts | 161° |
| 2026-05-05 02:29 | 48.27167 | 11.72168 | 5942 ft | 234 kts | 144° |
| 2026-05-05 02:29 | 48.25810 | 11.73669 | 6268 ft | 250 kts | 145° |
| 2026-05-05 02:29 | 48.24331 | 11.75182 | 6602 ft | 265 kts | 148° |
| 2026-05-05 02:30 | 48.22754 | 11.76698 | 7092 ft | 273 kts | 149° |
| 2026-05-05 02:30 | 48.21166 | 11.78283 | 7748 ft | 275 kts | 148° |
| 2026-05-05 02:30 | 48.19627 | 11.80021 | 8392 ft | 280 kts | 139° |
| 2026-05-05 02:30 | 48.18508 | 11.82430 | 9040 ft | 287 kts | 114° |
| 2026-05-05 02:31 | 48.18175 | 11.85382 | 9731 ft | 291 kts | 90° |
| 2026-05-05 02:31 | 48.18348 | 11.88417 | 10394 ft | 294 kts | 86° |
| 2026-05-05 02:31 | 48.18593 | 11.91473 | 11017 ft | 297 kts | 86° |
| 2026-05-05 02:31 | 48.18835 | 11.94574 | 11642 ft | 301 kts | 86° |
| 2026-05-05 02:32 | 48.19069 | 11.97704 | 12270 ft | 304 kts | 87° |
| 2026-05-05 02:32 | 48.19299 | 12.00876 | 12904 ft | 308 kts | 87° |
| 2026-05-05 02:32 | 48.19528 | 12.04080 | 13523 ft | 311 kts | 87° |
| 2026-05-05 02:32 | 48.19756 | 12.07318 | 14090 ft | 314 kts | 87° |
| 2026-05-05 02:33 | 48.19984 | 12.10592 | 14638 ft | 317 kts | 87° |
| 2026-05-05 02:33 | 48.20136 | 12.12774 | 14988 ft | 319 kts | 87° |
| 2026-05-05 02:33 | 48.20367 | 12.16100 | 15515 ft | 322 kts | 87° |
| 2026-05-05 02:33 | 48.20599 | 12.19451 | 16069 ft | 325 kts | 86° |
| 2026-05-05 02:34 | 48.20908 | 12.23925 | 16761 ft | 328 kts | 86° |
| 2026-05-05 02:34 | 48.21142 | 12.27359 | 17287 ft | 331 kts | 86° |
| 2026-05-05 02:34 | 48.21376 | 12.30806 | 17823 ft | 334 kts | 86° |
| 2026-05-05 02:34 | 48.21611 | 12.34287 | 18338 ft | 337 kts | 86° |
| 2026-05-05 02:35 | 48.21767 | 12.36604 | 18641 ft | 338 kts | 86° |
| 2026-05-05 02:35 | 48.22007 | 12.40177 | 19104 ft | 341 kts | 86° |
| 2026-05-05 02:35 | 48.22241 | 12.43681 | 19550 ft | 344 kts | 86° |
| 2026-05-05 02:35 | 48.22480 | 12.47269 | 20004 ft | 347 kts | 86° |
| 2026-05-05 02:36 | 48.22718 | 12.50869 | 20469 ft | 349 kts | 86° |
| 2026-05-05 02:36 | 48.22952 | 12.54510 | 20929 ft | 351 kts | 88° |
| 2026-05-05 02:36 | 48.22942 | 12.58173 | 21347 ft | 354 kts | 98° |
| 2026-05-05 02:36 | 48.22631 | 12.61884 | 21586 ft | 363 kts | 101° |
| 2026-05-05 02:37 | 48.22256 | 12.65677 | 21782 ft | 374 kts | 101° |
| 2026-05-05 02:37 | 48.21869 | 12.69588 | 22002 ft | 384 kts | 101° |
| 2026-05-05 02:37 | 48.21476 | 12.73602 | 22227 ft | 394 kts | 101° |
| 2026-05-05 02:37 | 48.21077 | 12.77711 | 22446 ft | 404 kts | 101° |
| 2026-05-05 02:38 | 48.20729 | 12.81936 | 22651 ft | 415 kts | 96° |
| 2026-05-05 02:38 | 48.20611 | 12.86317 | 22876 ft | 425 kts | 93° |
| 2026-05-05 02:38 | 48.20607 | 12.90794 | 23112 ft | 434 kts | 91° |
| 2026-05-05 02:38 | 48.20670 | 12.95351 | 23467 ft | 440 kts | 90° |
| 2026-05-05 02:39 | 48.20761 | 12.99955 | 23847 ft | 444 kts | 90° |
| 2026-05-05 02:39 | 48.20855 | 13.04596 | 24226 ft | 447 kts | 90° |
| 2026-05-05 02:39 | 48.20943 | 13.09280 | 24621 ft | 450 kts | 91° |
| 2026-05-05 02:39 | 48.21020 | 13.13974 | 25023 ft | 453 kts | 91° |
| 2026-05-05 02:40 | 48.21088 | 13.18705 | 25424 ft | 455 kts | 91° |
| 2026-05-05 02:40 | 48.21149 | 13.23463 | 25831 ft | 458 kts | 91° |
| 2026-05-05 02:40 | 48.21207 | 13.28235 | 26236 ft | 460 kts | 91° |
| 2026-05-05 02:40 | 48.21262 | 13.33069 | 26641 ft | 463 kts | 91° |
| 2026-05-05 02:41 | 48.21314 | 13.37895 | 27039 ft | 465 kts | 91° |
| 2026-05-05 02:41 | 48.21364 | 13.42764 | 27417 ft | 467 kts | 91° |
| 2026-05-05 02:41 | 48.21413 | 13.47643 | 27828 ft | 470 kts | 91° |
| 2026-05-05 02:41 | 48.21461 | 13.52532 | 28221 ft | 472 kts | 91° |
| 2026-05-05 02:42 | 48.21508 | 13.57472 | 28600 ft | 474 kts | 91° |
| 2026-05-05 02:42 | 48.21552 | 13.62430 | 28981 ft | 476 kts | 92° |
| 2026-05-05 02:42 | 48.21594 | 13.67391 | 29345 ft | 478 kts | 92° |
| 2026-05-05 02:42 | 48.21635 | 13.72395 | 29695 ft | 480 kts | 92° |
| 2026-05-05 02:43 | 48.21673 | 13.77404 | 30037 ft | 482 kts | 92° |
| 2026-05-05 02:43 | 48.21710 | 13.82447 | 30317 ft | 484 kts | 92° |
| 2026-05-05 02:43 | 48.21745 | 13.87494 | 30568 ft | 487 kts | 92° |
| 2026-05-05 02:43 | 48.21762 | 13.92535 | 30812 ft | 489 kts | 94° |
| 2026-05-05 02:44 | 48.21457 | 13.97662 | 31077 ft | 488 kts | 103° |
| 2026-05-05 02:44 | 48.20636 | 14.02592 | 31321 ft | 488 kts | 112° |
| 2026-05-05 02:44 | 48.19432 | 14.07289 | 31521 ft | 489 kts | 115° |
| 2026-05-05 02:44 | 48.18097 | 14.11991 | 31752 ft | 491 kts | 117° |
| 2026-05-05 02:45 | 48.16695 | 14.16725 | 31984 ft | 492 kts | 117° |
| 2026-05-05 02:45 | 48.15287 | 14.21414 | 32260 ft | 492 kts | 117° |
| 2026-05-05 02:45 | 48.13886 | 14.26082 | 32588 ft | 492 kts | 117° |
| 2026-05-05 02:45 | 48.12488 | 14.30760 | 32888 ft | 492 kts | 117° |
| 2026-05-05 02:46 | 48.11098 | 14.35432 | 33184 ft | 491 kts | 117° |
| 2026-05-05 02:46 | 48.09731 | 14.40043 | 33473 ft | 491 kts | 117° |
| 2026-05-05 02:46 | 48.08335 | 14.44751 | 33750 ft | 491 kts | 117° |
| 2026-05-05 02:46 | 48.06946 | 14.49434 | 33995 ft | 491 kts | 117° |
| 2026-05-05 02:47 | 48.05560 | 14.54102 | 34214 ft | 491 kts | 117° |
| 2026-05-05 02:47 | 48.04175 | 14.58758 | 34434 ft | 491 kts | 117° |
| 2026-05-05 02:47 | 48.02802 | 14.63364 | 34635 ft | 491 kts | 118° |
| 2026-05-05 02:47 | 48.01411 | 14.68018 | 34826 ft | 491 kts | 118° |
| 2026-05-05 02:48 | 47.99992 | 14.72755 | 34890 ft | 495 kts | 118° |
| 2026-05-05 02:48 | 47.97182 | 14.82107 | 34900 ft | 498 kts | 118° |
| 2026-05-05 02:49 | 47.94345 | 14.91531 | 34904 ft | 497 kts | 118° |
| 2026-05-05 02:49 | 47.91507 | 15.00924 | 34907 ft | 497 kts | 118° |
| 2026-05-05 02:50 | 47.88661 | 15.10305 | 34911 ft | 497 kts | 118° |
| 2026-05-05 02:50 | 47.85807 | 15.19674 | 34912 ft | 497 kts | 118° |
| 2026-05-05 02:51 | 47.82944 | 15.29031 | 34918 ft | 497 kts | 118° |
| 2026-05-05 02:51 | 47.80078 | 15.38389 | 34921 ft | 497 kts | 117° |
| 2026-05-05 02:52 | 47.77251 | 15.47748 | 34922 ft | 497 kts | 117° |
| 2026-05-05 02:52 | 47.74422 | 15.57105 | 34924 ft | 496 kts | 117° |
| 2026-05-05 02:53 | 47.71578 | 15.66452 | 34923 ft | 496 kts | 117° |
| 2026-05-05 02:53 | 47.68726 | 15.75780 | 34922 ft | 496 kts | 117° |
| 2026-05-05 02:54 | 47.65872 | 15.85091 | 34919 ft | 496 kts | 117° |
| 2026-05-05 02:54 | 47.63010 | 15.94382 | 34915 ft | 495 kts | 117° |
| 2026-05-05 02:55 | 47.60141 | 16.03664 | 34911 ft | 495 kts | 117° |
| 2026-05-05 02:55 | 47.57264 | 16.12942 | 34912 ft | 495 kts | 117° |
| 2026-05-05 02:56 | 47.54383 | 16.22195 | 34910 ft | 495 kts | 117° |
| 2026-05-05 02:56 | 47.51492 | 16.31446 | 34909 ft | 495 kts | 117° |
| 2026-05-05 02:57 | 47.48598 | 16.40668 | 34914 ft | 494 kts | 117° |
| 2026-05-05 02:57 | 47.45698 | 16.49881 | 34912 ft | 494 kts | 117° |
| 2026-05-05 02:58 | 47.42830 | 16.59093 | 34912 ft | 495 kts | 114° |
| 2026-05-05 02:58 | 47.40462 | 16.68652 | 34923 ft | 495 kts | 111° |
| 2026-05-05 02:59 | 47.38204 | 16.78253 | 34929 ft | 495 kts | 111° |
| 2026-05-05 02:59 | 47.35952 | 16.87858 | 34938 ft | 495 kts | 111° |
| 2026-05-05 03:00 | 47.33687 | 16.97433 | 34940 ft | 495 kts | 111° |
| 2026-05-05 03:00 | 47.31417 | 17.06962 | 34947 ft | 495 kts | 111° |
| 2026-05-05 03:01 | 47.29128 | 17.16523 | 34955 ft | 495 kts | 111° |
| 2026-05-05 03:01 | 47.26830 | 17.26088 | 34961 ft | 495 kts | 112° |
| 2026-05-05 03:02 | 47.24523 | 17.35644 | 34964 ft | 496 kts | 112° |
| 2026-05-05 03:02 | 47.22204 | 17.45207 | 34966 ft | 496 kts | 112° |
| 2026-05-05 03:03 | 47.19877 | 17.54763 | 34969 ft | 496 kts | 112° |
| 2026-05-05 03:03 | 47.17542 | 17.64314 | 34975 ft | 497 kts | 112° |
| 2026-05-05 03:04 | 47.15194 | 17.73879 | 34981 ft | 497 kts | 112° |
| 2026-05-05 03:04 | 47.12839 | 17.83427 | 34994 ft | 497 kts | 112° |
| 2026-05-05 03:05 | 47.10480 | 17.92954 | 35004 ft | 497 kts | 112° |
| 2026-05-05 03:05 | 47.08110 | 18.02482 | 35006 ft | 497 kts | 112° |
| 2026-05-05 03:06 | 47.05732 | 18.12004 | 35010 ft | 497 kts | 112° |
| 2026-05-05 03:06 | 47.03347 | 18.21514 | 35013 ft | 497 kts | 112° |
| 2026-05-05 03:07 | 47.00951 | 18.31035 | 35015 ft | 497 kts | 112° |
| 2026-05-05 03:07 | 46.98550 | 18.40534 | 35017 ft | 497 kts | 112° |
| 2026-05-05 03:08 | 46.96138 | 18.50025 | 35017 ft | 497 kts | 112° |
| 2026-05-05 03:08 | 46.93721 | 18.59499 | 35019 ft | 497 kts | 112° |
| 2026-05-05 03:09 | 46.91293 | 18.68981 | 35022 ft | 497 kts | 112° |
| 2026-05-05 03:09 | 46.88861 | 18.78438 | 35028 ft | 497 kts | 112° |
| 2026-05-05 03:10 | 46.86416 | 18.87905 | 35028 ft | 498 kts | 112° |
| 2026-05-05 03:10 | 46.83962 | 18.97365 | 35030 ft | 498 kts | 112° |
| 2026-05-05 03:11 | 46.81504 | 19.06810 | 35031 ft | 498 kts | 112° |
| 2026-05-05 03:11 | 46.79037 | 19.16247 | 35032 ft | 498 kts | 112° |
| 2026-05-05 03:12 | 46.76573 | 19.25637 | 35039 ft | 498 kts | 112° |
| 2026-05-05 03:12 | 46.74072 | 19.35130 | 35034 ft | 499 kts | 112° |
| 2026-05-05 03:13 | 46.71592 | 19.44505 | 35036 ft | 499 kts | 112° |
| 2026-05-05 03:13 | 46.69088 | 19.53936 | 35037 ft | 499 kts | 111° |
| 2026-05-05 03:14 | 46.66574 | 19.63363 | 35036 ft | 500 kts | 112° |
| 2026-05-05 03:14 | 46.64033 | 19.72853 | 35034 ft | 500 kts | 111° |
| 2026-05-05 03:15 | 46.61516 | 19.82217 | 35043 ft | 500 kts | 112° |
| 2026-05-05 03:15 | 46.58978 | 19.91619 | 35043 ft | 500 kts | 112° |
| 2026-05-05 03:16 | 46.56425 | 20.01049 | 35050 ft | 500 kts | 112° |
| 2026-05-05 03:16 | 46.53874 | 20.10426 | 35050 ft | 500 kts | 112° |
| 2026-05-05 03:17 | 46.51307 | 20.19823 | 35051 ft | 500 kts | 112° |
| 2026-05-05 03:17 | 46.48733 | 20.29212 | 35048 ft | 500 kts | 112° |
| 2026-05-05 03:18 | 46.46155 | 20.38580 | 35049 ft | 500 kts | 112° |
| 2026-05-05 03:18 | 46.43568 | 20.47939 | 35049 ft | 500 kts | 112° |
| 2026-05-05 03:19 | 46.39667 | 20.61983 | 35051 ft | 500 kts | 112° |
| 2026-05-05 03:19 | 46.37063 | 20.71316 | 35051 ft | 500 kts | 112° |
| 2026-05-05 03:20 | 46.34449 | 20.80648 | 35056 ft | 500 kts | 112° |
| 2026-05-05 03:20 | 46.32269 | 20.88400 | 35060 ft | 500 kts | 112° |
| 2026-05-05 03:21 | 46.29641 | 20.97708 | 35067 ft | 500 kts | 112° |
| 2026-05-05 03:21 | 46.27004 | 21.07017 | 35129 ft | 499 kts | 112° |
| 2026-05-05 03:22 | 46.25689 | 21.11648 | 35444 ft | 496 kts | 112° |
| 2026-05-05 03:22 | 46.24336 | 21.16215 | 35756 ft | 494 kts | 114° |
| 2026-05-05 03:22 | 46.22930 | 21.20742 | 35968 ft | 494 kts | 114° |
| 2026-05-05 03:22 | 46.21500 | 21.25260 | 36159 ft | 494 kts | 115° |
| 2026-05-05 03:23 | 46.20069 | 21.29764 | 36343 ft | 494 kts | 114° |
| 2026-05-05 03:23 | 46.18641 | 21.34275 | 36527 ft | 494 kts | 114° |
| 2026-05-05 03:23 | 46.17219 | 21.38789 | 36700 ft | 494 kts | 114° |
| 2026-05-05 03:23 | 46.15802 | 21.43298 | 36867 ft | 494 kts | 114° |
| 2026-05-05 03:24 | 46.14387 | 21.47809 | 37023 ft | 494 kts | 114° |
| 2026-05-05 03:24 | 46.12966 | 21.52333 | 37076 ft | 497 kts | 114° |
| 2026-05-05 03:24 | 46.10092 | 21.61458 | 37076 ft | 501 kts | 114° |
| 2026-05-05 03:25 | 46.07208 | 21.70578 | 37079 ft | 500 kts | 114° |
| 2026-05-05 03:25 | 46.04316 | 21.79695 | 37082 ft | 500 kts | 114° |
| 2026-05-05 03:26 | 46.01415 | 21.88807 | 37086 ft | 500 kts | 114° |
| 2026-05-05 03:26 | 45.98513 | 21.97891 | 37087 ft | 500 kts | 114° |
| 2026-05-05 03:27 | 45.95600 | 22.06982 | 37092 ft | 501 kts | 114° |
| 2026-05-05 03:27 | 45.92672 | 22.16078 | 37096 ft | 501 kts | 114° |
| 2026-05-05 03:28 | 45.89761 | 22.25083 | 37094 ft | 501 kts | 114° |
| 2026-05-05 03:28 | 45.86823 | 22.34140 | 37099 ft | 500 kts | 114° |
| 2026-05-05 03:29 | 45.83879 | 22.43190 | 37103 ft | 500 kts | 114° |
| 2026-05-05 03:29 | 45.80933 | 22.52220 | 37114 ft | 500 kts | 114° |
| 2026-05-05 03:30 | 45.77977 | 22.61246 | 37118 ft | 500 kts | 114° |
| 2026-05-05 03:30 | 45.75018 | 22.70245 | 37106 ft | 500 kts | 114° |
| 2026-05-05 03:31 | 45.72053 | 22.79231 | 37114 ft | 499 kts | 114° |
| 2026-05-05 03:31 | 45.69080 | 22.88213 | 37138 ft | 499 kts | 114° |
| 2026-05-05 03:32 | 45.66109 | 22.97166 | 37129 ft | 498 kts | 114° |
| 2026-05-05 03:32 | 45.63132 | 23.06102 | 37138 ft | 498 kts | 114° |
| 2026-05-05 03:33 | 45.60147 | 23.15028 | 37131 ft | 497 kts | 114° |
| 2026-05-05 03:33 | 45.57162 | 23.23924 | 37132 ft | 497 kts | 114° |
| 2026-05-05 03:34 | 45.54167 | 23.32822 | 37131 ft | 497 kts | 115° |
| 2026-05-05 03:34 | 45.51167 | 23.41709 | 37131 ft | 497 kts | 115° |
| 2026-05-05 03:35 | 45.48164 | 23.50573 | 37129 ft | 497 kts | 115° |
| 2026-05-05 03:35 | 45.45148 | 23.59440 | 37127 ft | 497 kts | 115° |
| 2026-05-05 03:36 | 45.42126 | 23.68300 | 37127 ft | 497 kts | 115° |
| 2026-05-05 03:36 | 45.39104 | 23.77129 | 37119 ft | 497 kts | 115° |
| 2026-05-05 03:37 | 45.36093 | 23.85897 | 37119 ft | 497 kts | 115° |
| 2026-05-05 03:37 | 45.33054 | 23.94717 | 37117 ft | 496 kts | 115° |
| 2026-05-05 03:38 | 45.30008 | 24.03526 | 37114 ft | 496 kts | 115° |
| 2026-05-05 03:38 | 45.26964 | 24.12303 | 37115 ft | 496 kts | 115° |
| 2026-05-05 03:39 | 45.23911 | 24.21080 | 37111 ft | 496 kts | 115° |
| 2026-05-05 03:39 | 45.20848 | 24.29852 | 37108 ft | 496 kts | 115° |
| 2026-05-05 03:40 | 45.17779 | 24.38613 | 37104 ft | 496 kts | 115° |
| 2026-05-05 03:40 | 45.14706 | 24.47357 | 37104 ft | 496 kts | 115° |
| 2026-05-05 03:41 | 45.11627 | 24.56092 | 37103 ft | 496 kts | 115° |
| 2026-05-05 03:41 | 45.08537 | 24.64831 | 37099 ft | 496 kts | 116° |
| 2026-05-05 03:42 | 45.05444 | 24.73544 | 37098 ft | 496 kts | 116° |
| 2026-05-05 03:42 | 45.02340 | 24.82263 | 37095 ft | 496 kts | 116° |
| 2026-05-05 03:43 | 44.99237 | 24.90954 | 37089 ft | 496 kts | 116° |
| 2026-05-05 03:43 | 44.96122 | 24.99646 | 37085 ft | 496 kts | 116° |
| 2026-05-05 03:44 | 44.93001 | 25.08331 | 37077 ft | 496 kts | 116° |
| 2026-05-05 03:44 | 44.89878 | 25.16992 | 37072 ft | 496 kts | 116° |
| 2026-05-05 03:45 | 44.86742 | 25.25663 | 37071 ft | 496 kts | 116° |
| 2026-05-05 03:45 | 44.83604 | 25.34310 | 37065 ft | 496 kts | 116° |
| 2026-05-05 03:46 | 44.80477 | 25.42901 | 37061 ft | 496 kts | 116° |
| 2026-05-05 03:46 | 44.77300 | 25.51602 | 37056 ft | 496 kts | 116° |
| 2026-05-05 03:47 | 44.74160 | 25.60176 | 37056 ft | 496 kts | 116° |
| 2026-05-05 03:47 | 44.70988 | 25.68807 | 37055 ft | 497 kts | 116° |
| 2026-05-05 03:48 | 44.67792 | 25.77479 | 37049 ft | 497 kts | 116° |
| 2026-05-05 03:48 | 44.64628 | 25.86034 | 37052 ft | 497 kts | 116° |
| 2026-05-05 03:49 | 44.61436 | 25.94637 | 37049 ft | 497 kts | 116° |
| 2026-05-05 03:49 | 44.58237 | 26.03231 | 37048 ft | 497 kts | 117° |
| 2026-05-05 03:50 | 44.55034 | 26.11816 | 37049 ft | 497 kts | 117° |
| 2026-05-05 03:50 | 44.51826 | 26.20384 | 37048 ft | 497 kts | 117° |
| 2026-05-05 03:51 | 44.48608 | 26.28951 | 37047 ft | 497 kts | 117° |
| 2026-05-05 03:51 | 44.45387 | 26.37500 | 37045 ft | 497 kts | 117° |
| 2026-05-05 03:52 | 44.42161 | 26.46038 | 37046 ft | 496 kts | 117° |
| 2026-05-05 03:52 | 44.38926 | 26.54575 | 37045 ft | 496 kts | 117° |
| 2026-05-05 03:53 | 44.35688 | 26.63089 | 37041 ft | 496 kts | 117° |
| 2026-05-05 03:53 | 44.32444 | 26.71596 | 37036 ft | 496 kts | 117° |
| 2026-05-05 03:54 | 44.29193 | 26.80093 | 37039 ft | 496 kts | 117° |
| 2026-05-05 03:54 | 44.25938 | 26.88575 | 37038 ft | 496 kts | 118° |
| 2026-05-05 03:55 | 44.22681 | 26.97036 | 37041 ft | 496 kts | 118° |
| 2026-05-05 03:55 | 44.19412 | 27.05503 | 37041 ft | 496 kts | 118° |
| 2026-05-05 03:56 | 44.16139 | 27.13952 | 37035 ft | 495 kts | 118° |
| 2026-05-05 03:56 | 44.12862 | 27.22391 | 37044 ft | 495 kts | 118° |
| 2026-05-05 03:57 | 44.09578 | 27.30819 | 37029 ft | 495 kts | 118° |
| 2026-05-05 03:57 | 44.06285 | 27.39246 | 37036 ft | 496 kts | 118° |
| 2026-05-05 03:58 | 44.02989 | 27.47658 | 37055 ft | 496 kts | 118° |
| 2026-05-05 03:58 | 43.99686 | 27.56063 | 37041 ft | 496 kts | 119° |
| 2026-05-05 03:59 | 43.96395 | 27.64411 | 37045 ft | 496 kts | 119° |
| 2026-05-05 03:59 | 43.93075 | 27.72807 | 37046 ft | 496 kts | 119° |
| 2026-05-05 04:00 | 43.89749 | 27.81194 | 37045 ft | 496 kts | 119° |
| 2026-05-05 04:00 | 43.86418 | 27.89567 | 37052 ft | 496 kts | 119° |
| 2026-05-05 04:01 | 43.83081 | 27.97932 | 37050 ft | 496 kts | 119° |
| 2026-05-05 04:01 | 43.79739 | 28.06287 | 37052 ft | 496 kts | 119° |
| 2026-05-05 04:02 | 43.76395 | 28.14622 | 37055 ft | 495 kts | 120° |
| 2026-05-05 04:02 | 43.73050 | 28.22932 | 37049 ft | 494 kts | 120° |
| 2026-05-05 04:03 | 43.69704 | 28.31225 | 37054 ft | 494 kts | 120° |
| 2026-05-05 04:03 | 43.66355 | 28.39499 | 37056 ft | 493 kts | 120° |
| 2026-05-05 04:04 | 43.63007 | 28.47744 | 37053 ft | 492 kts | 120° |
| 2026-05-05 04:04 | 43.59656 | 28.55972 | 37053 ft | 491 kts | 120° |
| 2026-05-05 04:05 | 43.56306 | 28.64180 | 37056 ft | 490 kts | 120° |
| 2026-05-05 04:05 | 43.52957 | 28.72358 | 37059 ft | 490 kts | 120° |
| 2026-05-05 04:06 | 43.50173 | 28.79139 | 37056 ft | 489 kts | 120° |
| 2026-05-05 04:06 | 43.46821 | 28.87281 | 37057 ft | 488 kts | 120° |
| 2026-05-05 04:07 | 43.43471 | 28.95400 | 37054 ft | 488 kts | 120° |
| 2026-05-05 04:07 | 43.40117 | 29.03502 | 37051 ft | 487 kts | 120° |
| 2026-05-05 04:08 | 43.36760 | 29.11586 | 37048 ft | 487 kts | 120° |
| 2026-05-05 04:08 | 43.32858 | 29.20956 | 37054 ft | 486 kts | 120° |
| 2026-05-05 04:09 | 43.30044 | 29.27696 | 37046 ft | 485 kts | 120° |
| 2026-05-05 04:09 | 43.26679 | 29.35733 | 37051 ft | 485 kts | 120° |
| 2026-05-05 04:10 | 43.23316 | 29.43744 | 37046 ft | 485 kts | 120° |
| 2026-05-05 04:10 | 43.19970 | 29.51693 | 37043 ft | 484 kts | 119° |
| 2026-05-05 04:11 | 43.16599 | 29.59678 | 37044 ft | 484 kts | 120° |
| 2026-05-05 04:11 | 43.13203 | 29.67701 | 37035 ft | 483 kts | 119° |
| 2026-05-05 04:12 | 43.09848 | 29.75605 | 37038 ft | 483 kts | 119° |
| 2026-05-05 04:12 | 43.06470 | 29.83543 | 37026 ft | 483 kts | 119° |
| 2026-05-05 04:13 | 43.03089 | 29.91470 | 37032 ft | 482 kts | 119° |
| 2026-05-05 04:13 | 42.99704 | 29.99379 | 37025 ft | 482 kts | 119° |
| 2026-05-05 04:14 | 42.96313 | 30.07281 | 37037 ft | 482 kts | 119° |
| 2026-05-05 04:14 | 42.92919 | 30.15170 | 37026 ft | 482 kts | 119° |
| 2026-05-05 04:15 | 42.89519 | 30.23054 | 37021 ft | 482 kts | 120° |
| 2026-05-05 04:15 | 42.86119 | 30.30914 | 37025 ft | 482 kts | 119° |
| 2026-05-05 04:16 | 42.82711 | 30.38772 | 37022 ft | 482 kts | 119° |
| 2026-05-05 04:16 | 42.79297 | 30.46624 | 37021 ft | 481 kts | 119° |
| 2026-05-05 04:17 | 42.75881 | 30.54460 | 37017 ft | 481 kts | 119° |
| 2026-05-05 04:17 | 42.73134 | 30.62715 | 37021 ft | 478 kts | 106° |
| 2026-05-05 04:18 | 42.71308 | 30.71374 | 37011 ft | 476 kts | 104° |
| 2026-05-05 04:18 | 42.69629 | 30.80076 | 37008 ft | 475 kts | 103° |
| 2026-05-05 04:19 | 42.67953 | 30.88770 | 37005 ft | 475 kts | 104° |
| 2026-05-05 04:19 | 42.66263 | 30.97389 | 37003 ft | 475 kts | 104° |
| 2026-05-05 04:20 | 42.64546 | 31.06056 | 37003 ft | 475 kts | 104° |
| 2026-05-05 04:20 | 42.62819 | 31.14723 | 36998 ft | 475 kts | 104° |
| 2026-05-05 04:21 | 42.61086 | 31.23388 | 36994 ft | 475 kts | 104° |
| 2026-05-05 04:21 | 42.59349 | 31.32041 | 36992 ft | 476 kts | 104° |
| 2026-05-05 04:22 | 42.57601 | 31.40709 | 36993 ft | 476 kts | 104° |
| 2026-05-05 04:22 | 42.55847 | 31.49369 | 36986 ft | 476 kts | 104° |
| 2026-05-05 04:23 | 42.54087 | 31.58016 | 36985 ft | 476 kts | 104° |
| 2026-05-05 04:23 | 42.52321 | 31.66665 | 36987 ft | 476 kts | 104° |
| 2026-05-05 04:24 | 42.50549 | 31.75299 | 36982 ft | 476 kts | 104° |
| 2026-05-05 04:25 | 42.47877 | 31.88259 | 36983 ft | 476 kts | 104° |
| 2026-05-05 04:25 | 42.46101 | 31.96840 | 36981 ft | 476 kts | 103° |
| 2026-05-05 04:26 | 42.44399 | 32.05495 | 36980 ft | 475 kts | 102° |
| 2026-05-05 04:26 | 42.42695 | 32.14138 | 36983 ft | 476 kts | 103° |
| 2026-05-05 04:27 | 42.40919 | 32.22761 | 36980 ft | 476 kts | 103° |
| 2026-05-05 04:27 | 42.39104 | 32.31374 | 36982 ft | 476 kts | 104° |
| 2026-05-05 04:28 | 42.37281 | 32.39964 | 36982 ft | 476 kts | 104° |
| 2026-05-05 04:28 | 42.35450 | 32.48572 | 36983 ft | 476 kts | 104° |
| 2026-05-05 04:29 | 42.33652 | 32.57180 | 36984 ft | 475 kts | 101° |
| 2026-05-05 04:29 | 42.32490 | 32.65944 | 36978 ft | 474 kts | 97° |
| 2026-05-05 04:30 | 42.31490 | 32.74737 | 36987 ft | 474 kts | 97° |
| 2026-05-05 04:30 | 42.30509 | 32.83539 | 36989 ft | 473 kts | 97° |
| 2026-05-05 04:31 | 42.29512 | 32.92331 | 36987 ft | 473 kts | 97° |
| 2026-05-05 04:31 | 42.28501 | 33.01116 | 36984 ft | 473 kts | 97° |
| 2026-05-05 04:32 | 42.27478 | 33.09895 | 36979 ft | 474 kts | 96° |
| 2026-05-05 04:32 | 42.26442 | 33.18764 | 36991 ft | 480 kts | 96° |
| 2026-05-05 04:33 | 42.25398 | 33.27646 | 36988 ft | 479 kts | 96° |
| 2026-05-05 04:33 | 42.24347 | 33.36523 | 36988 ft | 479 kts | 96° |
| 2026-05-05 04:34 | 42.23288 | 33.45402 | 36991 ft | 479 kts | 96° |
| 2026-05-05 04:34 | 42.22220 | 33.54285 | 36990 ft | 479 kts | 96° |
| 2026-05-05 04:35 | 42.21148 | 33.63154 | 36985 ft | 479 kts | 96° |
| 2026-05-05 04:35 | 42.20068 | 33.72025 | 36985 ft | 480 kts | 97° |
| 2026-05-05 04:36 | 42.18981 | 33.80901 | 36986 ft | 480 kts | 97° |
| 2026-05-05 04:36 | 42.17884 | 33.89776 | 36992 ft | 480 kts | 97° |
| 2026-05-05 04:37 | 42.16785 | 33.98642 | 36989 ft | 479 kts | 97° |
| 2026-05-05 04:37 | 42.15689 | 34.07429 | 36985 ft | 479 kts | 97° |
| 2026-05-05 04:38 | 42.14577 | 34.16279 | 36996 ft | 479 kts | 97° |
| 2026-05-05 04:38 | 42.13460 | 34.25114 | 36991 ft | 478 kts | 98° |
| 2026-05-05 04:39 | 42.12336 | 34.33945 | 36991 ft | 478 kts | 98° |
| 2026-05-05 04:39 | 42.11204 | 34.42778 | 36991 ft | 478 kts | 98° |
| 2026-05-05 04:40 | 42.10034 | 34.51591 | 36991 ft | 478 kts | 99° |
| 2026-05-05 04:40 | 42.08801 | 34.60380 | 36994 ft | 478 kts | 99° |
| 2026-05-05 04:41 | 42.07561 | 34.69182 | 36995 ft | 478 kts | 99° |
| 2026-05-05 04:41 | 42.06327 | 34.77976 | 36996 ft | 479 kts | 99° |
| 2026-05-05 04:42 | 42.05088 | 34.86792 | 36998 ft | 480 kts | 99° |
| 2026-05-05 04:42 | 42.03891 | 34.95633 | 36998 ft | 481 kts | 98° |
| 2026-05-05 04:43 | 42.02716 | 35.04485 | 36996 ft | 481 kts | 99° |
| 2026-05-05 04:43 | 42.01996 | 35.13434 | 36994 ft | 481 kts | 93° |
| 2026-05-05 04:44 | 42.01503 | 35.22407 | 36993 ft | 482 kts | 93° |
| 2026-05-05 04:44 | 42.01036 | 35.31406 | 36991 ft | 483 kts | 93° |
| 2026-05-05 04:45 | 42.00557 | 35.40416 | 36993 ft | 483 kts | 93° |
| 2026-05-05 04:45 | 42.00062 | 35.49429 | 36989 ft | 484 kts | 94° |
| 2026-05-05 04:46 | 41.99557 | 35.58458 | 36989 ft | 484 kts | 94° |
| 2026-05-05 04:46 | 41.99044 | 35.67491 | 36981 ft | 485 kts | 94° |
| 2026-05-05 04:47 | 41.98524 | 35.76533 | 36990 ft | 485 kts | 94° |
| 2026-05-05 04:47 | 41.97996 | 35.85587 | 36992 ft | 486 kts | 94° |
| 2026-05-05 04:48 | 41.97465 | 35.94578 | 36983 ft | 486 kts | 94° |
| 2026-05-05 04:48 | 41.96923 | 36.03634 | 36990 ft | 487 kts | 94° |
| 2026-05-05 04:49 | 41.96373 | 36.12702 | 36991 ft | 487 kts | 94° |
| 2026-05-05 04:49 | 41.95815 | 36.21771 | 36993 ft | 487 kts | 95° |
| 2026-05-05 04:50 | 41.95251 | 36.30832 | 36986 ft | 487 kts | 95° |
| 2026-05-05 04:50 | 41.94678 | 36.39910 | 36992 ft | 487 kts | 95° |
| 2026-05-05 04:51 | 41.94099 | 36.48981 | 36989 ft | 488 kts | 95° |
| 2026-05-05 04:51 | 41.93511 | 36.58065 | 36989 ft | 488 kts | 95° |
| 2026-05-05 04:52 | 41.92917 | 36.67140 | 36989 ft | 488 kts | 95° |
| 2026-05-05 04:52 | 41.92316 | 36.76215 | 36976 ft | 488 kts | 95° |
| 2026-05-05 04:53 | 41.91707 | 36.85288 | 36993 ft | 488 kts | 95° |
| 2026-05-05 04:53 | 41.91091 | 36.94367 | 36981 ft | 489 kts | 96° |
| 2026-05-05 04:54 | 41.90467 | 37.03453 | 36977 ft | 489 kts | 96° |
| 2026-05-05 04:54 | 41.90093 | 37.11029 | 36979 ft | 489 kts | 92° |
| 2026-05-05 04:55 | 41.90037 | 37.20158 | 36988 ft | 490 kts | 91° |
| 2026-05-05 04:55 | 41.90006 | 37.29303 | 36991 ft | 490 kts | 91° |
| 2026-05-05 04:56 | 41.89876 | 37.39939 | 36990 ft | 490 kts | 92° |
| 2026-05-05 04:56 | 41.89721 | 37.49082 | 36985 ft | 490 kts | 92° |
| 2026-05-05 04:57 | 41.89582 | 37.56757 | 36985 ft | 491 kts | 92° |
| 2026-05-05 04:57 | 41.89413 | 37.65907 | 36982 ft | 491 kts | 92° |
| 2026-05-05 04:58 | 41.89238 | 37.75070 | 36980 ft | 491 kts | 92° |
| 2026-05-05 04:58 | 41.89057 | 37.84217 | 36981 ft | 491 kts | 92° |
| 2026-05-05 04:59 | 41.88868 | 37.93380 | 36981 ft | 491 kts | 92° |
| 2026-05-05 04:59 | 41.88673 | 38.02483 | 36976 ft | 491 kts | 93° |
| 2026-05-05 05:00 | 41.88469 | 38.11650 | 36978 ft | 491 kts | 93° |
| 2026-05-05 05:00 | 41.88258 | 38.20816 | 36979 ft | 492 kts | 93° |
| 2026-05-05 05:01 | 41.88040 | 38.29985 | 36973 ft | 492 kts | 93° |
| 2026-05-05 05:01 | 41.87814 | 38.39160 | 36972 ft | 492 kts | 93° |
| 2026-05-05 05:02 | 41.87581 | 38.48341 | 36974 ft | 492 kts | 93° |
| 2026-05-05 05:02 | 41.87340 | 38.57530 | 36972 ft | 493 kts | 94° |
| 2026-05-05 05:03 | 41.87092 | 38.66720 | 36969 ft | 493 kts | 94° |
| 2026-05-05 05:03 | 41.86836 | 38.75914 | 36966 ft | 493 kts | 94° |
| 2026-05-05 05:04 | 41.86573 | 38.85112 | 36969 ft | 494 kts | 94° |
| 2026-05-05 05:04 | 41.86302 | 38.94313 | 36968 ft | 494 kts | 94° |
| 2026-05-05 05:05 | 41.86024 | 39.03527 | 36969 ft | 494 kts | 94° |
| 2026-05-05 05:05 | 41.85739 | 39.12735 | 36965 ft | 495 kts | 94° |
| 2026-05-05 05:06 | 41.85445 | 39.21956 | 36963 ft | 495 kts | 94° |
| 2026-05-05 05:06 | 41.85144 | 39.31180 | 36965 ft | 495 kts | 94° |
| 2026-05-05 05:07 | 41.84836 | 39.40405 | 36956 ft | 495 kts | 94° |
| 2026-05-05 05:07 | 41.84522 | 39.49586 | 36957 ft | 496 kts | 94° |
| 2026-05-05 05:08 | 41.84201 | 39.58822 | 36960 ft | 496 kts | 94° |
| 2026-05-05 05:08 | 41.83871 | 39.68049 | 36956 ft | 496 kts | 95° |
| 2026-05-05 05:09 | 41.83532 | 39.77290 | 36955 ft | 496 kts | 95° |
| 2026-05-05 05:09 | 41.83187 | 39.86542 | 36954 ft | 497 kts | 95° |
| 2026-05-05 05:10 | 41.82834 | 39.95788 | 36956 ft | 497 kts | 95° |
| 2026-05-05 05:10 | 41.82473 | 40.05050 | 36953 ft | 498 kts | 95° |
| 2026-05-05 05:11 | 41.82106 | 40.14312 | 36952 ft | 498 kts | 95° |
| 2026-05-05 05:11 | 41.81729 | 40.23581 | 36951 ft | 498 kts | 95° |
| 2026-05-05 05:12 | 41.81343 | 40.32859 | 36950 ft | 498 kts | 95° |
| 2026-05-05 05:12 | 41.80950 | 40.42136 | 36950 ft | 499 kts | 95° |
| 2026-05-05 05:13 | 41.80549 | 40.51424 | 36945 ft | 499 kts | 96° |
| 2026-05-05 05:13 | 41.80155 | 40.60722 | 36943 ft | 500 kts | 94° |
| 2026-05-05 05:14 | 41.80887 | 40.70016 | 36948 ft | 505 kts | 78° |
| 2026-05-05 05:14 | 41.82669 | 40.79131 | 36945 ft | 507 kts | 76° |
| 2026-05-05 05:15 | 41.84597 | 40.88166 | 36942 ft | 507 kts | 76° |
| 2026-05-05 05:15 | 41.86529 | 40.97270 | 36943 ft | 508 kts | 76° |
| 2026-05-05 05:16 | 41.88428 | 41.06386 | 36942 ft | 508 kts | 77° |
| 2026-05-05 05:16 | 41.90312 | 41.15532 | 36944 ft | 508 kts | 77° |
| 2026-05-05 05:17 | 41.92188 | 41.24687 | 36942 ft | 509 kts | 77° |
| 2026-05-05 05:17 | 41.94058 | 41.33849 | 36939 ft | 509 kts | 77° |
| 2026-05-05 05:18 | 41.95923 | 41.43022 | 36935 ft | 509 kts | 77° |
| 2026-05-05 05:18 | 41.97782 | 41.52206 | 36936 ft | 509 kts | 77° |
| 2026-05-05 05:19 | 41.99634 | 41.61402 | 36934 ft | 510 kts | 77° |
| 2026-05-05 05:19 | 42.01481 | 41.70608 | 36932 ft | 510 kts | 77° |
| 2026-05-05 05:20 | 42.03321 | 41.79828 | 36931 ft | 510 kts | 77° |
| 2026-05-05 05:20 | 42.05155 | 41.89052 | 36928 ft | 511 kts | 77° |
| 2026-05-05 05:21 | 42.06985 | 41.98304 | 36925 ft | 512 kts | 78° |
| 2026-05-05 05:21 | 42.08807 | 42.07558 | 36920 ft | 512 kts | 78° |
| 2026-05-05 05:22 | 42.10624 | 42.16830 | 36917 ft | 512 kts | 78° |
| 2026-05-05 05:22 | 42.12434 | 42.26108 | 36912 ft | 512 kts | 78° |
| 2026-05-05 05:23 | 42.14237 | 42.35394 | 36913 ft | 513 kts | 78° |
| 2026-05-05 05:23 | 42.16035 | 42.44701 | 36911 ft | 513 kts | 78° |
| 2026-05-05 05:24 | 42.17813 | 42.53943 | 36908 ft | 513 kts | 78° |
| 2026-05-05 05:24 | 42.19597 | 42.63265 | 36910 ft | 514 kts | 78° |
| 2026-05-05 05:25 | 42.21375 | 42.72596 | 36901 ft | 514 kts | 78° |
| 2026-05-05 05:25 | 42.23146 | 42.81940 | 36901 ft | 514 kts | 78° |
| 2026-05-05 05:26 | 42.24910 | 42.91290 | 36917 ft | 514 kts | 78° |
| 2026-05-05 05:26 | 42.26506 | 43.00682 | 36916 ft | 512 kts | 85° |
| 2026-05-05 05:27 | 42.26326 | 43.10149 | 36917 ft | 501 kts | 105° |
| 2026-05-05 05:27 | 42.22718 | 43.23245 | 36908 ft | 496 kts | 117° |
| 2026-05-05 05:28 | 42.19899 | 43.31735 | 36904 ft | 496 kts | 118° |
| 2026-05-05 05:28 | 42.17084 | 43.40235 | 36895 ft | 497 kts | 117° |
| 2026-05-05 05:29 | 42.14291 | 43.48762 | 36899 ft | 497 kts | 117° |
| 2026-05-05 05:29 | 42.11503 | 43.57298 | 36902 ft | 498 kts | 117° |
| 2026-05-05 05:30 | 42.08523 | 43.65684 | 36904 ft | 494 kts | 126° |
| 2026-05-05 05:30 | 42.04816 | 43.73465 | 36903 ft | 493 kts | 128° |
| 2026-05-05 05:31 | 42.00986 | 43.81100 | 36907 ft | 493 kts | 128° |
| 2026-05-05 05:31 | 41.97131 | 43.88725 | 36902 ft | 493 kts | 128° |
| 2026-05-05 05:32 | 41.93307 | 43.96301 | 36906 ft | 493 kts | 128° |
| 2026-05-05 05:32 | 41.89463 | 44.03925 | 36905 ft | 493 kts | 128° |
| 2026-05-05 05:33 | 41.85616 | 44.11541 | 36906 ft | 493 kts | 128° |
| 2026-05-05 05:33 | 41.81760 | 44.19157 | 36907 ft | 493 kts | 129° |
| 2026-05-05 05:34 | 41.77896 | 44.26766 | 36907 ft | 493 kts | 129° |
| 2026-05-05 05:34 | 41.74026 | 44.34366 | 36913 ft | 494 kts | 129° |
| 2026-05-05 05:35 | 41.70152 | 44.41956 | 36918 ft | 493 kts | 129° |
| 2026-05-05 05:35 | 41.66280 | 44.49523 | 36935 ft | 493 kts | 129° |
| 2026-05-05 05:36 | 41.62396 | 44.57095 | 36920 ft | 493 kts | 129° |
| 2026-05-05 05:36 | 41.58513 | 44.64646 | 36938 ft | 493 kts | 129° |
| 2026-05-05 05:37 | 41.54628 | 44.72182 | 36934 ft | 493 kts | 130° |
| 2026-05-05 05:37 | 41.50736 | 44.79714 | 36934 ft | 493 kts | 130° |
| 2026-05-05 05:38 | 41.46842 | 44.87231 | 36934 ft | 493 kts | 130° |
| 2026-05-05 05:38 | 41.42946 | 44.94734 | 36929 ft | 493 kts | 130° |
| 2026-05-05 05:39 | 41.39038 | 45.02239 | 36927 ft | 493 kts | 130° |
| 2026-05-05 05:39 | 41.35534 | 45.10137 | 36926 ft | 502 kts | 118° |
| 2026-05-05 05:40 | 41.33078 | 45.18881 | 36924 ft | 507 kts | 115° |
| 2026-05-05 05:40 | 41.30820 | 45.27778 | 36921 ft | 508 kts | 114° |
| 2026-05-05 05:41 | 41.28572 | 45.36676 | 36925 ft | 508 kts | 115° |
| 2026-05-05 05:41 | 41.26287 | 45.45579 | 36923 ft | 509 kts | 115° |
| 2026-05-05 05:42 | 41.23985 | 45.54452 | 36919 ft | 509 kts | 115° |
| 2026-05-05 05:42 | 41.21664 | 45.63355 | 36921 ft | 510 kts | 115° |
| 2026-05-05 05:43 | 41.19731 | 45.70753 | 36921 ft | 510 kts | 115° |
| 2026-05-05 05:43 | 41.17009 | 45.81079 | 36920 ft | 510 kts | 116° |
| 2026-05-05 05:44 | 41.15036 | 45.88525 | 36916 ft | 510 kts | 116° |
| 2026-05-05 05:44 | 41.12677 | 45.97410 | 36923 ft | 511 kts | 116° |
| 2026-05-05 05:45 | 41.10312 | 46.06293 | 36922 ft | 511 kts | 116° |
| 2026-05-05 05:45 | 41.07941 | 46.15171 | 36928 ft | 511 kts | 116° |
| 2026-05-05 05:46 | 41.05562 | 46.24044 | 36927 ft | 511 kts | 116° |
| 2026-05-05 05:46 | 41.03178 | 46.32918 | 36930 ft | 512 kts | 116° |
| 2026-05-05 05:47 | 41.00802 | 46.41813 | 36934 ft | 512 kts | 116° |
| 2026-05-05 05:47 | 40.98424 | 46.50706 | 36932 ft | 513 kts | 116° |
| 2026-05-05 05:48 | 40.96035 | 46.59598 | 36934 ft | 513 kts | 116° |
| 2026-05-05 05:48 | 40.93637 | 46.68484 | 36936 ft | 513 kts | 117° |
| 2026-05-05 05:49 | 40.91396 | 46.77471 | 36944 ft | 521 kts | 109° |
| 2026-05-05 05:49 | 40.90985 | 46.87161 | 36944 ft | 540 kts | 87° |
| 2026-05-05 05:50 | 40.92512 | 46.96943 | 36951 ft | 546 kts | 81° |
| 2026-05-05 05:50 | 40.94371 | 47.06635 | 36950 ft | 548 kts | 80° |
| 2026-05-05 05:51 | 40.96244 | 47.16405 | 36952 ft | 548 kts | 80° |
| 2026-05-05 05:51 | 40.98063 | 47.26203 | 36948 ft | 549 kts | 81° |
| 2026-05-05 05:52 | 40.99852 | 47.36023 | 36949 ft | 549 kts | 81° |
| 2026-05-05 05:52 | 41.01634 | 47.45872 | 36940 ft | 550 kts | 81° |
| 2026-05-05 05:53 | 41.03407 | 47.55719 | 36936 ft | 550 kts | 81° |
| 2026-05-05 05:53 | 41.05174 | 47.65573 | 36933 ft | 550 kts | 81° |
| 2026-05-05 05:54 | 41.06930 | 47.75424 | 36927 ft | 549 kts | 81° |
| 2026-05-05 05:54 | 41.08679 | 47.85274 | 36920 ft | 548 kts | 81° |
| 2026-05-05 05:55 | 41.10417 | 47.95115 | 36936 ft | 549 kts | 81° |
| 2026-05-05 05:55 | 41.12791 | 48.04777 | 36891 ft | 551 kts | 74° |
| 2026-05-05 05:56 | 41.15429 | 48.14317 | 36918 ft | 550 kts | 73° |
| 2026-05-05 05:56 | 41.18095 | 48.23841 | 36919 ft | 549 kts | 73° |
| 2026-05-05 05:57 | 41.20736 | 48.33342 | 36922 ft | 549 kts | 73° |
| 2026-05-05 05:57 | 41.23361 | 48.42863 | 36925 ft | 549 kts | 73° |
| 2026-05-05 05:58 | 41.25952 | 48.52313 | 36930 ft | 548 kts | 73° |
| 2026-05-05 05:58 | 41.28551 | 48.61831 | 36936 ft | 547 kts | 73° |
| 2026-05-05 05:59 | 41.31144 | 48.71361 | 36943 ft | 548 kts | 73° |
| 2026-05-05 05:59 | 41.33730 | 48.80900 | 36948 ft | 548 kts | 73° |
| 2026-05-05 06:00 | 41.36311 | 48.90456 | 36946 ft | 549 kts | 73° |
| 2026-05-05 06:00 | 41.38889 | 49.00029 | 36946 ft | 549 kts | 73° |
| 2026-05-05 06:01 | 41.41453 | 49.09611 | 36945 ft | 550 kts | 73° |
| 2026-05-05 06:01 | 41.44016 | 49.19225 | 36949 ft | 551 kts | 74° |
| 2026-05-05 06:02 | 41.46572 | 49.28844 | 36946 ft | 551 kts | 74° |
| 2026-05-05 06:02 | 41.49123 | 49.38481 | 36941 ft | 551 kts | 74° |
| 2026-05-05 06:03 | 41.51664 | 49.48119 | 36941 ft | 551 kts | 74° |
| 2026-05-05 06:03 | 41.54197 | 49.57764 | 36939 ft | 551 kts | 74° |
| 2026-05-05 06:04 | 41.56722 | 49.67414 | 36937 ft | 550 kts | 74° |
| 2026-05-05 06:04 | 41.59236 | 49.77064 | 36936 ft | 549 kts | 74° |
| 2026-05-05 06:05 | 41.61737 | 49.86700 | 36938 ft | 549 kts | 74° |
| 2026-05-05 06:05 | 41.64228 | 49.96340 | 36938 ft | 548 kts | 74° |
| 2026-05-05 06:06 | 41.66708 | 50.05973 | 36940 ft | 548 kts | 74° |
| 2026-05-05 06:06 | 41.69180 | 50.15615 | 36936 ft | 548 kts | 74° |
| 2026-05-05 06:07 | 41.71626 | 50.25194 | 36933 ft | 547 kts | 74° |
| 2026-05-05 06:07 | 41.74076 | 50.34827 | 36935 ft | 547 kts | 75° |
| 2026-05-05 06:08 | 41.76518 | 50.44468 | 36932 ft | 546 kts | 75° |
| 2026-05-05 06:08 | 41.78947 | 50.54097 | 36937 ft | 546 kts | 75° |
| 2026-05-05 06:09 | 41.81369 | 50.63735 | 36936 ft | 545 kts | 75° |
| 2026-05-05 06:09 | 41.83780 | 50.73372 | 36929 ft | 545 kts | 75° |
| 2026-05-05 06:10 | 41.86181 | 50.83004 | 36928 ft | 544 kts | 75° |
| 2026-05-05 06:10 | 41.88573 | 50.92642 | 36931 ft | 544 kts | 75° |
| 2026-05-05 06:11 | 41.90951 | 51.02266 | 36929 ft | 544 kts | 75° |
| 2026-05-05 06:11 | 41.93325 | 51.11909 | 36925 ft | 543 kts | 75° |
| 2026-05-05 06:12 | 41.95687 | 51.21544 | 36924 ft | 543 kts | 75° |
| 2026-05-05 06:12 | 41.98040 | 51.31186 | 36923 ft | 543 kts | 75° |
| 2026-05-05 06:13 | 42.00380 | 51.40809 | 36924 ft | 542 kts | 75° |
| 2026-05-05 06:13 | 42.03609 | 51.50014 | 37276 ft | 546 kts | 60° |
| 2026-05-05 06:14 | 42.05604 | 51.54342 | 37564 ft | 544 kts | 59° |
| 2026-05-05 06:14 | 42.07652 | 51.58622 | 37797 ft | 543 kts | 58° |
| 2026-05-05 06:14 | 42.09721 | 51.62875 | 38024 ft | 543 kts | 58° |
| 2026-05-05 06:14 | 42.11801 | 51.67129 | 38223 ft | 543 kts | 58° |
| 2026-05-05 06:15 | 42.13872 | 51.71374 | 38422 ft | 543 kts | 58° |
| 2026-05-05 06:15 | 42.15938 | 51.75627 | 38609 ft | 542 kts | 58° |
| 2026-05-05 06:15 | 42.17997 | 51.79885 | 38751 ft | 542 kts | 58° |
| 2026-05-05 06:15 | 42.20051 | 51.84150 | 38883 ft | 542 kts | 58° |
| 2026-05-05 06:16 | 42.24138 | 51.92668 | 38914 ft | 546 kts | 58° |
| 2026-05-05 06:16 | 42.28245 | 52.01257 | 38909 ft | 544 kts | 58° |
| 2026-05-05 06:17 | 42.32346 | 52.09855 | 38906 ft | 544 kts | 58° |
| 2026-05-05 06:17 | 42.36437 | 52.18454 | 38908 ft | 544 kts | 58° |
| 2026-05-05 06:18 | 42.40516 | 52.27053 | 38902 ft | 543 kts | 58° |
| 2026-05-05 06:18 | 42.44585 | 52.35657 | 38902 ft | 542 kts | 58° |
| 2026-05-05 06:19 | 42.48643 | 52.44261 | 38900 ft | 542 kts | 58° |
| 2026-05-05 06:19 | 42.52691 | 52.52869 | 38894 ft | 541 kts | 58° |
| 2026-05-05 06:20 | 42.56729 | 52.61481 | 38900 ft | 541 kts | 58° |
| 2026-05-05 06:20 | 42.60758 | 52.70097 | 38897 ft | 541 kts | 58° |
| 2026-05-05 06:21 | 42.64780 | 52.78725 | 38894 ft | 541 kts | 58° |
| 2026-05-05 06:21 | 42.68797 | 52.87367 | 38892 ft | 541 kts | 58° |
| 2026-05-05 06:22 | 42.72806 | 52.96016 | 38889 ft | 541 kts | 58° |
| 2026-05-05 06:22 | 42.76783 | 53.04621 | 38886 ft | 541 kts | 58° |
| 2026-05-05 06:23 | 42.80805 | 53.13351 | 38883 ft | 541 kts | 58° |
| 2026-05-05 06:23 | 42.84772 | 53.21984 | 38881 ft | 541 kts | 58° |
| 2026-05-05 06:24 | 42.88755 | 53.30679 | 38882 ft | 541 kts | 58° |
| 2026-05-05 06:24 | 42.92733 | 53.39389 | 38876 ft | 541 kts | 58° |
| 2026-05-05 06:25 | 42.96703 | 53.48106 | 38872 ft | 541 kts | 58° |
| 2026-05-05 06:25 | 43.00354 | 53.57058 | 38873 ft | 539 kts | 70° |
| 2026-05-05 06:26 | 43.01470 | 53.61923 | 38869 ft | 535 kts | 81° |
| 2026-05-05 06:26 | 43.02054 | 53.66930 | 38867 ft | 533 kts | 85° |
| 2026-05-05 06:26 | 43.02815 | 53.77014 | 38870 ft | 533 kts | 88° |
| 2026-05-05 06:27 | 43.03753 | 53.92166 | 38864 ft | 534 kts | 88° |
| 2026-05-05 06:28 | 43.04400 | 54.02265 | 38865 ft | 534 kts | 88° |
| 2026-05-05 06:28 | 43.05058 | 54.12384 | 38867 ft | 534 kts | 88° |
| 2026-05-05 06:29 | 43.05709 | 54.22487 | 38868 ft | 533 kts | 88° |
| 2026-05-05 06:29 | 43.06351 | 54.32587 | 38866 ft | 533 kts | 88° |
| 2026-05-05 06:30 | 43.06982 | 54.42687 | 38863 ft | 533 kts | 88° |
| 2026-05-05 06:30 | 43.07603 | 54.52788 | 38864 ft | 533 kts | 88° |
| 2026-05-05 06:31 | 43.08217 | 54.62897 | 38862 ft | 533 kts | 88° |
| 2026-05-05 06:31 | 43.08822 | 54.73018 | 38862 ft | 534 kts | 88° |
| 2026-05-05 06:32 | 43.09418 | 54.83142 | 38856 ft | 534 kts | 88° |
| 2026-05-05 06:32 | 43.09906 | 54.91554 | 38860 ft | 534 kts | 88° |
| 2026-05-05 06:33 | 43.10487 | 55.01691 | 38852 ft | 534 kts | 88° |
| 2026-05-05 06:33 | 43.11058 | 55.11831 | 38851 ft | 534 kts | 88° |
| 2026-05-05 06:34 | 43.11620 | 55.21957 | 38851 ft | 534 kts | 88° |
| 2026-05-05 06:34 | 43.12174 | 55.32106 | 38850 ft | 534 kts | 88° |
| 2026-05-05 06:35 | 43.12719 | 55.42251 | 38849 ft | 534 kts | 88° |
| 2026-05-05 06:35 | 43.13254 | 55.52384 | 38854 ft | 534 kts | 88° |
| 2026-05-05 06:36 | 43.13780 | 55.62527 | 38849 ft | 534 kts | 88° |
| 2026-05-05 06:36 | 43.14298 | 55.72671 | 38852 ft | 534 kts | 88° |
| 2026-05-05 06:37 | 43.14806 | 55.82801 | 38850 ft | 534 kts | 88° |
| 2026-05-05 06:37 | 43.15305 | 55.92952 | 38851 ft | 533 kts | 88° |
| 2026-05-05 06:38 | 43.16347 | 56.03000 | 38861 ft | 536 kts | 77° |
| 2026-05-05 06:38 | 43.18306 | 56.12859 | 38859 ft | 536 kts | 75° |
| 2026-05-05 06:39 | 43.20398 | 56.22670 | 38866 ft | 536 kts | 75° |
| 2026-05-05 06:39 | 43.22484 | 56.32479 | 38864 ft | 536 kts | 75° |
| 2026-05-05 06:40 | 43.24544 | 56.42303 | 38864 ft | 536 kts | 75° |
| 2026-05-05 06:40 | 43.26584 | 56.52135 | 38865 ft | 536 kts | 75° |
| 2026-05-05 06:41 | 43.28613 | 56.61964 | 38862 ft | 536 kts | 75° |
| 2026-05-05 06:41 | 43.30635 | 56.71804 | 38874 ft | 535 kts | 75° |
| 2026-05-05 06:42 | 43.32646 | 56.81636 | 38873 ft | 535 kts | 75° |
| 2026-05-05 06:42 | 43.34647 | 56.91465 | 38872 ft | 534 kts | 75° |
| 2026-05-05 06:43 | 43.36640 | 57.01301 | 38873 ft | 534 kts | 75° |
| 2026-05-05 06:43 | 43.38607 | 57.11062 | 38873 ft | 533 kts | 75° |
| 2026-05-05 06:44 | 43.40580 | 57.20893 | 38875 ft | 533 kts | 75° |
| 2026-05-05 06:44 | 43.42542 | 57.30724 | 38876 ft | 533 kts | 75° |
| 2026-05-05 06:45 | 43.44494 | 57.40551 | 38877 ft | 533 kts | 75° |
| 2026-05-05 06:45 | 43.46439 | 57.50392 | 38881 ft | 532 kts | 75° |
| 2026-05-05 06:46 | 43.48373 | 57.60223 | 38887 ft | 532 kts | 75° |
| 2026-05-05 06:46 | 43.50295 | 57.70046 | 38888 ft | 531 kts | 75° |
| 2026-05-05 06:47 | 43.52208 | 57.79871 | 38889 ft | 531 kts | 75° |
| 2026-05-05 06:47 | 43.54110 | 57.89689 | 38893 ft | 530 kts | 75° |
| 2026-05-05 06:48 | 43.56005 | 57.99516 | 38893 ft | 530 kts | 75° |
| 2026-05-05 06:48 | 43.57887 | 58.09333 | 38895 ft | 530 kts | 75° |
| 2026-05-05 06:49 | 43.59761 | 58.19153 | 38898 ft | 530 kts | 75° |
| 2026-05-05 06:49 | 43.61629 | 58.28993 | 38899 ft | 530 kts | 75° |
| 2026-05-05 06:50 | 43.63487 | 58.38831 | 38905 ft | 530 kts | 75° |
| 2026-05-05 06:50 | 43.65306 | 58.48681 | 38901 ft | 530 kts | 76° |
| 2026-05-05 06:51 | 43.67104 | 58.58547 | 38903 ft | 530 kts | 76° |
| 2026-05-05 06:51 | 43.68887 | 58.68366 | 38904 ft | 530 kts | 76° |
| 2026-05-05 06:52 | 43.70676 | 58.78240 | 38905 ft | 530 kts | 76° |
| 2026-05-05 06:52 | 43.72461 | 58.88140 | 38908 ft | 531 kts | 76° |
| 2026-05-05 06:53 | 43.74238 | 58.98046 | 38908 ft | 531 kts | 76° |
| 2026-05-05 06:53 | 43.76017 | 59.07972 | 38912 ft | 532 kts | 76° |
| 2026-05-05 06:54 | 43.77832 | 59.17891 | 38918 ft | 532 kts | 75° |
| 2026-05-05 06:54 | 43.79647 | 59.27814 | 38916 ft | 533 kts | 75° |
| 2026-05-05 06:55 | 43.81451 | 59.37763 | 38923 ft | 533 kts | 76° |
| 2026-05-05 06:55 | 43.83242 | 59.47717 | 38919 ft | 533 kts | 76° |
| 2026-05-05 06:56 | 43.85025 | 59.57679 | 38918 ft | 533 kts | 76° |
| 2026-05-05 06:56 | 43.86800 | 59.67659 | 38923 ft | 533 kts | 76° |
| 2026-05-05 06:57 | 43.88556 | 59.77643 | 38923 ft | 533 kts | 76° |
| 2026-05-05 06:57 | 43.90271 | 59.87646 | 38930 ft | 533 kts | 76° |
| 2026-05-05 06:58 | 43.91977 | 59.97658 | 38931 ft | 533 kts | 76° |
| 2026-05-05 06:58 | 43.93677 | 60.07661 | 38932 ft | 533 kts | 76° |
| 2026-05-05 06:59 | 43.95373 | 60.17682 | 38936 ft | 533 kts | 76° |
| 2026-05-05 06:59 | 43.97060 | 60.27706 | 38938 ft | 533 kts | 76° |
| 2026-05-05 07:00 | 43.98736 | 60.37716 | 38939 ft | 533 kts | 76° |
| 2026-05-05 07:00 | 44.00405 | 60.47747 | 38940 ft | 533 kts | 76° |
| 2026-05-05 07:01 | 44.02053 | 60.57715 | 38940 ft | 533 kts | 76° |
| 2026-05-05 07:01 | 44.03701 | 60.67739 | 38942 ft | 532 kts | 77° |
| 2026-05-05 07:02 | 44.05341 | 60.77769 | 38945 ft | 532 kts | 77° |
| 2026-05-05 07:02 | 44.06972 | 60.87805 | 38948 ft | 532 kts | 77° |
| 2026-05-05 07:03 | 44.08592 | 60.97838 | 38949 ft | 531 kts | 77° |
| 2026-05-05 07:03 | 44.10200 | 61.07853 | 38949 ft | 531 kts | 77° |
| 2026-05-05 07:04 | 44.11799 | 61.17867 | 38948 ft | 530 kts | 77° |
| 2026-05-05 07:04 | 44.13387 | 61.27875 | 38955 ft | 530 kts | 77° |
| 2026-05-05 07:05 | 44.14382 | 61.38030 | 38951 ft | 529 kts | 85° |
| 2026-05-05 07:05 | 44.14880 | 61.48238 | 38955 ft | 529 kts | 86° |
| 2026-05-05 07:06 | 44.15299 | 61.58459 | 38953 ft | 528 kts | 86° |
| 2026-05-05 07:06 | 44.15719 | 61.68672 | 38954 ft | 528 kts | 86° |
| 2026-05-05 07:07 | 44.16143 | 61.78864 | 38954 ft | 527 kts | 86° |
| 2026-05-05 07:07 | 44.16562 | 61.89059 | 38957 ft | 527 kts | 86° |
| 2026-05-05 07:08 | 44.16972 | 61.99248 | 38956 ft | 526 kts | 86° |
| 2026-05-05 07:08 | 44.17373 | 62.09420 | 38960 ft | 526 kts | 86° |
| 2026-05-05 07:09 | 44.17765 | 62.19592 | 38963 ft | 525 kts | 86° |
| 2026-05-05 07:09 | 44.18147 | 62.29748 | 38959 ft | 525 kts | 87° |
| 2026-05-05 07:10 | 44.18514 | 62.39891 | 38965 ft | 524 kts | 87° |
| 2026-05-05 07:10 | 44.18857 | 62.50025 | 38963 ft | 523 kts | 87° |
| 2026-05-05 07:11 | 44.19191 | 62.60154 | 38965 ft | 523 kts | 87° |
| 2026-05-05 07:11 | 44.19520 | 62.70272 | 38966 ft | 522 kts | 87° |
| 2026-05-05 07:12 | 44.19839 | 62.80365 | 38970 ft | 521 kts | 87° |
| 2026-05-05 07:12 | 44.20149 | 62.90441 | 38969 ft | 520 kts | 88° |
| 2026-05-05 07:13 | 44.20450 | 63.00493 | 38970 ft | 519 kts | 88° |
| 2026-05-05 07:13 | 44.20741 | 63.10540 | 38975 ft | 518 kts | 88° |
| 2026-05-05 07:14 | 44.21019 | 63.20580 | 38970 ft | 518 kts | 88° |
| 2026-05-05 07:14 | 44.21160 | 63.30612 | 38968 ft | 517 kts | 89° |
| 2026-05-05 07:15 | 44.21244 | 63.40633 | 38967 ft | 517 kts | 89° |
| 2026-05-05 07:15 | 44.21338 | 63.50656 | 38968 ft | 517 kts | 89° |
| 2026-05-05 07:16 | 44.21440 | 63.60669 | 38973 ft | 516 kts | 89° |
| 2026-05-05 07:16 | 44.21537 | 63.70670 | 38972 ft | 516 kts | 89° |
| 2026-05-05 07:17 | 44.21625 | 63.80662 | 38974 ft | 516 kts | 89° |
| 2026-05-05 07:17 | 44.21691 | 63.88975 | 38971 ft | 515 kts | 89° |
| 2026-05-05 07:18 | 44.21762 | 63.98950 | 38971 ft | 515 kts | 90° |
| 2026-05-05 07:18 | 44.21823 | 64.08930 | 38972 ft | 515 kts | 90° |
| 2026-05-05 07:19 | 44.21880 | 64.18905 | 38969 ft | 515 kts | 89° |
| 2026-05-05 07:19 | 44.22247 | 64.28874 | 38974 ft | 515 kts | 85° |
| 2026-05-05 07:20 | 44.22800 | 64.38820 | 38971 ft | 515 kts | 85° |
| 2026-05-05 07:20 | 44.23305 | 64.48773 | 38975 ft | 514 kts | 86° |
| 2026-05-05 07:21 | 44.23753 | 64.58726 | 38973 ft | 514 kts | 86° |
| 2026-05-05 07:21 | 44.24177 | 64.68687 | 38972 ft | 514 kts | 86° |
| 2026-05-05 07:22 | 44.24592 | 64.78636 | 38978 ft | 514 kts | 86° |
| 2026-05-05 07:22 | 44.24999 | 64.88594 | 38975 ft | 514 kts | 87° |
| 2026-05-05 07:23 | 44.25365 | 64.98484 | 38977 ft | 514 kts | 87° |
| 2026-05-05 07:23 | 44.25722 | 65.08500 | 38980 ft | 514 kts | 87° |
| 2026-05-05 07:24 | 44.26074 | 65.18450 | 38979 ft | 514 kts | 87° |
| 2026-05-05 07:24 | 44.26421 | 65.28403 | 38971 ft | 513 kts | 87° |
| 2026-05-05 07:25 | 44.26757 | 65.38278 | 38978 ft | 513 kts | 87° |
| 2026-05-05 07:25 | 44.27087 | 65.48220 | 38974 ft | 513 kts | 87° |
| 2026-05-05 07:26 | 44.27407 | 65.58147 | 38973 ft | 512 kts | 87° |
| 2026-05-05 07:26 | 44.27718 | 65.68067 | 38983 ft | 512 kts | 87° |
| 2026-05-05 07:27 | 44.28020 | 65.77988 | 38983 ft | 511 kts | 88° |
| 2026-05-05 07:27 | 44.28314 | 65.87888 | 38977 ft | 510 kts | 88° |
| 2026-05-05 07:28 | 44.28598 | 65.97774 | 38985 ft | 510 kts | 88° |
| 2026-05-05 07:28 | 44.28874 | 66.07653 | 38978 ft | 509 kts | 88° |
| 2026-05-05 07:29 | 44.29141 | 66.17509 | 38985 ft | 508 kts | 88° |
| 2026-05-05 07:29 | 44.29399 | 66.27363 | 38982 ft | 507 kts | 88° |
| 2026-05-05 07:30 | 44.29648 | 66.37193 | 38981 ft | 507 kts | 88° |
| 2026-05-05 07:30 | 44.29931 | 66.51924 | 38985 ft | 505 kts | 90° |
| 2026-05-05 07:31 | 44.29976 | 66.61726 | 38985 ft | 505 kts | 90° |
| 2026-05-05 07:31 | 44.30016 | 66.71513 | 38983 ft | 504 kts | 90° |
| 2026-05-05 07:32 | 44.30068 | 66.81299 | 38984 ft | 504 kts | 90° |
| 2026-05-05 07:32 | 44.30120 | 66.91087 | 38994 ft | 504 kts | 90° |
| 2026-05-05 07:33 | 44.30165 | 67.00869 | 38987 ft | 504 kts | 90° |
| 2026-05-05 07:33 | 44.30200 | 67.10639 | 38995 ft | 504 kts | 90° |
| 2026-05-05 07:34 | 44.30227 | 67.20420 | 38999 ft | 504 kts | 90° |
| 2026-05-05 07:34 | 44.30246 | 67.30203 | 39005 ft | 504 kts | 90° |
| 2026-05-05 07:35 | 44.30256 | 67.39979 | 39005 ft | 504 kts | 90° |
| 2026-05-05 07:35 | 44.30258 | 67.49697 | 39008 ft | 504 kts | 90° |
| 2026-05-05 07:36 | 44.30399 | 67.59480 | 39009 ft | 504 kts | 86° |
| 2026-05-05 07:36 | 44.31011 | 67.69295 | 39009 ft | 504 kts | 84° |
| 2026-05-05 07:37 | 44.31644 | 67.78960 | 39011 ft | 504 kts | 85° |
| 2026-05-05 07:37 | 44.32198 | 67.88710 | 39010 ft | 504 kts | 85° |
| 2026-05-05 07:38 | 44.32703 | 67.98466 | 39009 ft | 503 kts | 85° |
| 2026-05-05 07:38 | 44.33192 | 68.08219 | 39012 ft | 503 kts | 85° |
| 2026-05-05 07:39 | 44.33675 | 68.17976 | 39009 ft | 503 kts | 85° |
| 2026-05-05 07:39 | 44.34152 | 68.27730 | 39008 ft | 503 kts | 85° |
| 2026-05-05 07:40 | 44.34622 | 68.37480 | 39007 ft | 503 kts | 85° |
| 2026-05-05 07:40 | 44.35084 | 68.47240 | 39010 ft | 503 kts | 85° |
| 2026-05-05 07:41 | 44.35537 | 68.56999 | 39007 ft | 503 kts | 85° |
| 2026-05-05 07:41 | 44.35981 | 68.66750 | 39004 ft | 503 kts | 85° |
| 2026-05-05 07:42 | 44.36417 | 68.76505 | 39009 ft | 503 kts | 85° |
| 2026-05-05 07:42 | 44.36845 | 68.86265 | 39007 ft | 503 kts | 85° |
| 2026-05-05 07:43 | 44.36826 | 68.96038 | 39009 ft | 503 kts | 92° |
| 2026-05-05 07:43 | 44.36402 | 69.05736 | 39008 ft | 503 kts | 93° |
| 2026-05-05 07:44 | 44.35906 | 69.15549 | 39009 ft | 503 kts | 93° |
| 2026-05-05 07:44 | 44.35410 | 69.25239 | 39011 ft | 503 kts | 93° |
| 2026-05-05 07:45 | 44.34913 | 69.34984 | 39019 ft | 503 kts | 93° |
| 2026-05-05 07:45 | 44.34411 | 69.44720 | 39017 ft | 502 kts | 93° |
| 2026-05-05 07:46 | 44.33903 | 69.54448 | 39020 ft | 502 kts | 93° |
| 2026-05-05 07:46 | 44.33385 | 69.64171 | 39021 ft | 502 kts | 93° |
| 2026-05-05 07:47 | 44.32860 | 69.73897 | 39023 ft | 502 kts | 93° |
| 2026-05-05 07:47 | 44.32326 | 69.83608 | 39021 ft | 502 kts | 93° |
| 2026-05-05 07:48 | 44.31784 | 69.93323 | 39024 ft | 501 kts | 93° |
| 2026-05-05 07:48 | 44.31235 | 70.03024 | 39025 ft | 501 kts | 93° |
| 2026-05-05 07:49 | 44.30677 | 70.12734 | 39029 ft | 501 kts | 93° |
| 2026-05-05 07:49 | 44.30111 | 70.22429 | 39027 ft | 501 kts | 94° |
| 2026-05-05 07:50 | 44.29537 | 70.32130 | 39030 ft | 501 kts | 94° |
| 2026-05-05 07:50 | 44.28953 | 70.41820 | 39033 ft | 501 kts | 94° |
| 2026-05-05 07:51 | 44.28353 | 70.51505 | 39032 ft | 501 kts | 94° |
| 2026-05-05 07:51 | 44.27746 | 70.61189 | 39032 ft | 501 kts | 94° |
| 2026-05-05 07:52 | 44.27133 | 70.70864 | 39035 ft | 501 kts | 94° |
| 2026-05-05 07:52 | 44.26512 | 70.80542 | 39033 ft | 501 kts | 94° |
| 2026-05-05 07:53 | 44.25883 | 70.90212 | 39035 ft | 500 kts | 94° |
| 2026-05-05 07:53 | 44.25245 | 70.99880 | 39032 ft | 500 kts | 94° |
| 2026-05-05 07:54 | 44.24601 | 71.09537 | 39033 ft | 500 kts | 94° |
| 2026-05-05 07:54 | 44.23948 | 71.19200 | 39032 ft | 500 kts | 94° |
| 2026-05-05 07:55 | 44.23288 | 71.28836 | 39030 ft | 500 kts | 94° |
| 2026-05-05 07:55 | 44.22618 | 71.38504 | 39031 ft | 500 kts | 94° |
| 2026-05-05 07:56 | 44.21962 | 71.48143 | 39033 ft | 499 kts | 94° |
| 2026-05-05 07:56 | 44.21315 | 71.57776 | 39034 ft | 499 kts | 94° |
| 2026-05-05 07:57 | 44.20658 | 71.67409 | 39032 ft | 499 kts | 94° |
| 2026-05-05 07:57 | 44.19992 | 71.77028 | 39031 ft | 499 kts | 94° |
| 2026-05-05 07:58 | 44.19321 | 71.86581 | 39031 ft | 498 kts | 94° |
| 2026-05-05 07:58 | 44.18638 | 71.96188 | 39033 ft | 498 kts | 94° |
| 2026-05-05 07:59 | 44.17947 | 72.05792 | 39032 ft | 498 kts | 95° |
| 2026-05-05 07:59 | 44.17249 | 72.15381 | 39031 ft | 498 kts | 95° |
| 2026-05-05 08:00 | 44.16543 | 72.24966 | 39034 ft | 497 kts | 95° |
| 2026-05-05 08:00 | 44.15830 | 72.34543 | 39036 ft | 497 kts | 95° |
| 2026-05-05 08:01 | 44.15109 | 72.44104 | 39031 ft | 497 kts | 95° |
| 2026-05-05 08:01 | 44.14380 | 72.53669 | 39028 ft | 497 kts | 95° |
| 2026-05-05 08:02 | 44.13644 | 72.63222 | 39025 ft | 496 kts | 95° |
| 2026-05-05 08:02 | 44.12901 | 72.72767 | 39023 ft | 496 kts | 95° |
| 2026-05-05 08:03 | 44.12150 | 72.82299 | 39026 ft | 496 kts | 95° |
| 2026-05-05 08:03 | 44.11391 | 72.91837 | 39019 ft | 496 kts | 95° |
| 2026-05-05 08:04 | 44.10756 | 72.99760 | 39022 ft | 495 kts | 95° |
| 2026-05-05 08:04 | 44.09978 | 73.09280 | 39020 ft | 495 kts | 96° |
| 2026-05-05 08:05 | 44.09182 | 73.18797 | 39016 ft | 495 kts | 96° |
| 2026-05-05 08:05 | 44.08379 | 73.28319 | 39013 ft | 496 kts | 96° |
| 2026-05-05 08:06 | 44.07572 | 73.37835 | 39010 ft | 496 kts | 96° |
| 2026-05-05 08:06 | 44.06757 | 73.47358 | 39014 ft | 496 kts | 96° |
| 2026-05-05 08:07 | 44.05934 | 73.56873 | 39012 ft | 496 kts | 96° |
| 2026-05-05 08:07 | 44.05101 | 73.66404 | 39010 ft | 497 kts | 96° |
| 2026-05-05 08:08 | 44.04261 | 73.75949 | 39012 ft | 497 kts | 96° |
| 2026-05-05 08:08 | 44.03411 | 73.85492 | 39013 ft | 498 kts | 97° |
| 2026-05-05 08:09 | 44.02554 | 73.95030 | 39021 ft | 498 kts | 97° |
| 2026-05-05 08:09 | 44.01687 | 74.04580 | 39025 ft | 498 kts | 97° |
| 2026-05-05 08:10 | 44.00812 | 74.14125 | 39030 ft | 498 kts | 97° |
| 2026-05-05 08:10 | 43.99935 | 74.23616 | 39035 ft | 498 kts | 97° |
| 2026-05-05 08:11 | 43.99044 | 74.33164 | 39031 ft | 498 kts | 97° |
| 2026-05-05 08:11 | 43.98146 | 74.42696 | 39040 ft | 498 kts | 97° |
| 2026-05-05 08:12 | 43.97241 | 74.52233 | 39042 ft | 498 kts | 97° |
| 2026-05-05 08:12 | 43.96397 | 74.61763 | 39047 ft | 497 kts | 96° |
| 2026-05-05 08:13 | 43.95578 | 74.71301 | 39044 ft | 498 kts | 97° |
| 2026-05-05 08:13 | 43.94746 | 74.80830 | 39048 ft | 497 kts | 97° |
| 2026-05-05 08:14 | 43.93898 | 74.90349 | 39048 ft | 497 kts | 97° |
| 2026-05-05 08:14 | 43.93039 | 74.99855 | 39042 ft | 497 kts | 97° |
| 2026-05-05 08:15 | 43.92174 | 75.09355 | 39052 ft | 496 kts | 97° |
| 2026-05-05 08:15 | 43.91301 | 75.18850 | 39045 ft | 496 kts | 97° |
| 2026-05-05 08:16 | 43.90421 | 75.28332 | 39047 ft | 496 kts | 97° |
| 2026-05-05 08:16 | 43.89532 | 75.37824 | 39035 ft | 496 kts | 97° |
| 2026-05-05 08:17 | 43.88637 | 75.47298 | 39043 ft | 496 kts | 97° |
| 2026-05-05 08:17 | 43.87733 | 75.56773 | 39037 ft | 496 kts | 97° |
| 2026-05-05 08:18 | 43.86825 | 75.66220 | 39040 ft | 496 kts | 97° |
| 2026-05-05 08:18 | 43.85905 | 75.75700 | 39037 ft | 496 kts | 97° |
| 2026-05-05 08:19 | 43.84979 | 75.85162 | 39036 ft | 495 kts | 97° |
| 2026-05-05 08:19 | 43.84045 | 75.94618 | 39036 ft | 495 kts | 98° |
| 2026-05-05 08:20 | 43.83102 | 76.04003 | 39033 ft | 495 kts | 98° |
| 2026-05-05 08:20 | 43.82004 | 76.13426 | 39037 ft | 495 kts | 99° |
| 2026-05-05 08:21 | 43.80854 | 76.22822 | 39031 ft | 495 kts | 99° |
| 2026-05-05 08:21 | 43.79717 | 76.32216 | 39034 ft | 495 kts | 99° |
| 2026-05-05 08:22 | 43.78580 | 76.41678 | 39032 ft | 495 kts | 99° |
| 2026-05-05 08:22 | 43.77457 | 76.50995 | 39028 ft | 495 kts | 99° |
| 2026-05-05 08:23 | 43.76317 | 76.60387 | 39030 ft | 494 kts | 99° |
| 2026-05-05 08:23 | 43.75170 | 76.69766 | 39020 ft | 494 kts | 99° |
| 2026-05-05 08:24 | 43.74015 | 76.79132 | 39021 ft | 494 kts | 99° |
| 2026-05-05 08:24 | 43.72853 | 76.88490 | 39020 ft | 494 kts | 99° |
| 2026-05-05 08:25 | 43.71686 | 76.97831 | 39021 ft | 494 kts | 99° |
| 2026-05-05 08:25 | 43.70510 | 77.07174 | 39020 ft | 494 kts | 99° |
| 2026-05-05 08:26 | 43.69324 | 77.16533 | 39025 ft | 494 kts | 99° |
| 2026-05-05 08:26 | 43.68136 | 77.25871 | 39028 ft | 494 kts | 100° |
| 2026-05-05 08:27 | 43.66928 | 77.35214 | 39032 ft | 494 kts | 100° |
| 2026-05-05 08:27 | 43.65710 | 77.44554 | 39027 ft | 494 kts | 100° |
| 2026-05-05 08:28 | 43.64486 | 77.53900 | 39029 ft | 495 kts | 100° |
| 2026-05-05 08:28 | 43.63257 | 77.63239 | 39037 ft | 495 kts | 100° |
| 2026-05-05 08:29 | 43.62020 | 77.72571 | 39037 ft | 495 kts | 100° |
| 2026-05-05 08:30 | 43.60148 | 77.86580 | 39045 ft | 495 kts | 100° |
| 2026-05-05 08:30 | 43.58890 | 77.95920 | 39040 ft | 495 kts | 100° |
| 2026-05-05 08:31 | 43.57680 | 78.05269 | 39043 ft | 495 kts | 96° |
| 2026-05-05 08:31 | 43.57286 | 78.14741 | 39040 ft | 495 kts | 91° |
| 2026-05-05 08:32 | 43.57112 | 78.24234 | 39040 ft | 495 kts | 91° |
| 2026-05-05 08:32 | 43.56964 | 78.33739 | 39036 ft | 496 kts | 91° |
| 2026-05-05 08:33 | 43.56799 | 78.43185 | 39029 ft | 496 kts | 91° |
| 2026-05-05 08:33 | 43.56614 | 78.52694 | 39027 ft | 496 kts | 91° |
| 2026-05-05 08:34 | 43.56416 | 78.62191 | 39022 ft | 497 kts | 91° |
| 2026-05-05 08:34 | 43.56212 | 78.71732 | 39029 ft | 497 kts | 91° |
| 2026-05-05 08:35 | 43.55999 | 78.81260 | 39030 ft | 497 kts | 91° |
| 2026-05-05 08:35 | 43.55779 | 78.90782 | 39031 ft | 497 kts | 91° |
| 2026-05-05 08:36 | 43.55550 | 79.00323 | 39024 ft | 498 kts | 91° |
| 2026-05-05 08:36 | 43.55314 | 79.09857 | 39022 ft | 498 kts | 91° |
| 2026-05-05 08:37 | 43.55070 | 79.19403 | 39024 ft | 498 kts | 91° |
| 2026-05-05 08:37 | 43.54821 | 79.28952 | 39028 ft | 498 kts | 91° |
| 2026-05-05 08:38 | 43.54562 | 79.38499 | 39029 ft | 499 kts | 92° |
| 2026-05-05 08:38 | 43.54290 | 79.48054 | 39033 ft | 499 kts | 92° |
| 2026-05-05 08:39 | 43.54011 | 79.57619 | 39038 ft | 499 kts | 92° |
| 2026-05-05 08:39 | 43.53725 | 79.67180 | 39038 ft | 499 kts | 92° |
| 2026-05-05 08:40 | 43.53433 | 79.76738 | 39040 ft | 500 kts | 92° |
| 2026-05-05 08:40 | 43.53137 | 79.86313 | 39045 ft | 500 kts | 92° |
| 2026-05-05 08:41 | 43.52828 | 79.95884 | 39049 ft | 500 kts | 92° |
| 2026-05-05 08:41 | 43.52508 | 80.05463 | 39048 ft | 501 kts | 92° |
| 2026-05-05 08:42 | 43.52182 | 80.15042 | 39051 ft | 501 kts | 92° |
| 2026-05-05 08:42 | 43.51848 | 80.24632 | 39055 ft | 501 kts | 92° |
| 2026-05-05 08:43 | 43.51507 | 80.34228 | 39058 ft | 502 kts | 92° |
| 2026-05-05 08:43 | 43.51157 | 80.43832 | 39063 ft | 502 kts | 92° |
| 2026-05-05 08:44 | 43.50799 | 80.53438 | 39064 ft | 502 kts | 92° |
| 2026-05-05 08:44 | 43.50433 | 80.63052 | 39067 ft | 503 kts | 92° |
| 2026-05-05 08:45 | 43.50059 | 80.72659 | 39068 ft | 503 kts | 92° |
| 2026-05-05 08:45 | 43.49806 | 80.82297 | 39068 ft | 503 kts | 90° |
| 2026-05-05 08:46 | 43.49715 | 80.91943 | 39074 ft | 504 kts | 90° |
| 2026-05-05 08:46 | 43.49609 | 81.01594 | 39072 ft | 505 kts | 90° |
| 2026-05-05 08:47 | 43.49464 | 81.11200 | 39071 ft | 505 kts | 90° |
| 2026-05-05 08:47 | 43.49296 | 81.20880 | 39070 ft | 506 kts | 91° |
| 2026-05-05 08:48 | 43.49120 | 81.30570 | 39069 ft | 506 kts | 91° |
| 2026-05-05 08:48 | 43.48936 | 81.40262 | 39063 ft | 507 kts | 91° |
| 2026-05-05 08:49 | 43.48745 | 81.49967 | 39064 ft | 507 kts | 91° |
| 2026-05-05 08:49 | 43.48545 | 81.59689 | 39060 ft | 508 kts | 91° |
| 2026-05-05 08:50 | 43.48337 | 81.69419 | 39055 ft | 509 kts | 91° |
| 2026-05-05 08:50 | 43.48155 | 81.77516 | 39046 ft | 509 kts | 91° |
| 2026-05-05 08:51 | 43.47912 | 81.87261 | 39047 ft | 509 kts | 91° |
| 2026-05-05 08:51 | 43.47661 | 81.97013 | 39043 ft | 510 kts | 91° |
| 2026-05-05 08:52 | 43.47404 | 82.06778 | 39040 ft | 510 kts | 91° |
| 2026-05-05 08:52 | 43.47140 | 82.16544 | 39039 ft | 511 kts | 92° |
| 2026-05-05 08:53 | 43.46868 | 82.26324 | 39035 ft | 511 kts | 92° |
| 2026-05-05 08:53 | 43.46588 | 82.36107 | 39036 ft | 512 kts | 92° |
| 2026-05-05 08:54 | 43.46299 | 82.45897 | 39041 ft | 512 kts | 92° |
| 2026-05-05 08:54 | 43.46001 | 82.55683 | 39041 ft | 512 kts | 92° |
| 2026-05-05 08:55 | 43.45694 | 82.65477 | 39047 ft | 512 kts | 92° |
| 2026-05-05 08:55 | 43.45380 | 82.75272 | 39058 ft | 512 kts | 92° |
| 2026-05-05 08:56 | 43.45057 | 82.85080 | 39068 ft | 513 kts | 92° |
| 2026-05-05 08:56 | 43.44725 | 82.94874 | 39079 ft | 513 kts | 92° |
| 2026-05-05 08:57 | 43.44385 | 83.04679 | 39086 ft | 513 kts | 92° |
| 2026-05-05 08:57 | 43.44036 | 83.14495 | 39098 ft | 514 kts | 92° |
| 2026-05-05 08:58 | 43.43678 | 83.24321 | 39107 ft | 514 kts | 92° |
| 2026-05-05 08:58 | 43.43312 | 83.34150 | 39116 ft | 515 kts | 92° |
| 2026-05-05 08:59 | 43.42847 | 83.43968 | 39128 ft | 515 kts | 96° |
| 2026-05-05 08:59 | 43.41986 | 83.53695 | 39131 ft | 516 kts | 97° |
| 2026-05-05 09:00 | 43.41059 | 83.63477 | 39133 ft | 516 kts | 97° |
| 2026-05-05 09:00 | 43.40177 | 83.73347 | 39130 ft | 516 kts | 97° |
| 2026-05-05 09:01 | 43.39334 | 83.83085 | 39132 ft | 517 kts | 97° |
| 2026-05-05 09:01 | 43.38485 | 83.92887 | 39131 ft | 516 kts | 97° |
| 2026-05-05 09:02 | 43.37626 | 84.02690 | 39132 ft | 517 kts | 97° |
| 2026-05-05 09:02 | 43.36755 | 84.12490 | 39127 ft | 517 kts | 97° |
| 2026-05-05 09:03 | 43.35876 | 84.22293 | 39125 ft | 517 kts | 97° |
| 2026-05-05 09:03 | 43.34988 | 84.32088 | 39129 ft | 517 kts | 97° |
| 2026-05-05 09:04 | 43.34092 | 84.41888 | 39117 ft | 517 kts | 97° |
| 2026-05-05 09:04 | 43.33162 | 84.51682 | 39120 ft | 517 kts | 98° |
| 2026-05-05 09:05 | 43.32221 | 84.61455 | 39118 ft | 516 kts | 98° |
| 2026-05-05 09:05 | 43.31274 | 84.71238 | 39112 ft | 517 kts | 98° |
| 2026-05-05 09:06 | 43.30323 | 84.81012 | 39107 ft | 517 kts | 98° |
| 2026-05-05 09:06 | 43.29362 | 84.90784 | 39102 ft | 517 kts | 98° |
| 2026-05-05 09:07 | 43.28393 | 85.00564 | 39102 ft | 517 kts | 98° |
| 2026-05-05 09:07 | 43.27415 | 85.10351 | 39086 ft | 518 kts | 98° |
| 2026-05-05 09:08 | 43.26428 | 85.20147 | 39096 ft | 518 kts | 98° |
| 2026-05-05 09:08 | 43.25431 | 85.29953 | 39104 ft | 519 kts | 98° |
| 2026-05-05 09:09 | 43.24421 | 85.39777 | 39101 ft | 521 kts | 98° |
| 2026-05-05 09:09 | 43.23404 | 85.49621 | 39108 ft | 522 kts | 98° |
| 2026-05-05 09:10 | 43.22376 | 85.59470 | 39107 ft | 522 kts | 99° |
| 2026-05-05 09:10 | 43.21341 | 85.69308 | 39101 ft | 521 kts | 99° |
| 2026-05-05 09:11 | 43.20300 | 85.79103 | 39122 ft | 523 kts | 99° |
| 2026-05-05 09:11 | 43.19376 | 85.88976 | 39128 ft | 523 kts | 92° |
| 2026-05-05 09:12 | 43.20174 | 85.98833 | 39139 ft | 522 kts | 72° |
| 2026-05-05 09:12 | 43.21477 | 86.03451 | 39137 ft | 519 kts | 61° |
| 2026-05-05 09:12 | 43.23269 | 86.07739 | 39139 ft | 517 kts | 56° |
| 2026-05-05 09:13 | 43.27204 | 86.16009 | 39148 ft | 518 kts | 53° |
| 2026-05-05 09:13 | 43.31239 | 86.24208 | 39156 ft | 519 kts | 53° |
| 2026-05-05 09:14 | 43.35291 | 86.32432 | 39168 ft | 520 kts | 53° |
| 2026-05-05 09:14 | 43.39319 | 86.40682 | 39170 ft | 520 kts | 54° |
| 2026-05-05 09:15 | 43.43324 | 86.48953 | 39159 ft | 520 kts | 54° |
| 2026-05-05 09:15 | 43.47358 | 86.57233 | 39152 ft | 521 kts | 53° |
| 2026-05-05 09:16 | 43.51388 | 86.65517 | 39144 ft | 520 kts | 53° |
| 2026-05-05 09:16 | 43.55411 | 86.73809 | 39124 ft | 520 kts | 54° |
| 2026-05-05 09:17 | 43.59379 | 86.82154 | 39108 ft | 520 kts | 54° |
| 2026-05-05 09:17 | 43.63321 | 86.90538 | 39100 ft | 520 kts | 54° |
| 2026-05-05 09:18 | 43.67266 | 86.98920 | 39080 ft | 520 kts | 54° |
| 2026-05-05 09:18 | 43.71206 | 87.07298 | 39064 ft | 519 kts | 54° |
| 2026-05-05 09:19 | 43.75129 | 87.15668 | 39055 ft | 519 kts | 54° |
| 2026-05-05 09:19 | 43.79046 | 87.24064 | 39047 ft | 519 kts | 54° |
| 2026-05-05 09:20 | 43.82955 | 87.32459 | 39048 ft | 518 kts | 55° |
| 2026-05-05 09:20 | 43.86848 | 87.40846 | 39050 ft | 518 kts | 55° |
| 2026-05-05 09:21 | 43.90740 | 87.49257 | 39051 ft | 518 kts | 55° |
| 2026-05-05 09:21 | 43.94811 | 87.57480 | 39049 ft | 516 kts | 50° |
| 2026-05-05 09:22 | 43.99233 | 87.65320 | 39048 ft | 515 kts | 49° |
| 2026-05-05 09:22 | 44.03652 | 87.73155 | 39049 ft | 515 kts | 50° |
| 2026-05-05 09:23 | 44.08007 | 87.81073 | 39053 ft | 515 kts | 50° |
| 2026-05-05 09:23 | 44.12329 | 87.89036 | 39036 ft | 515 kts | 50° |
| 2026-05-05 09:24 | 44.16338 | 87.97308 | 39041 ft | 518 kts | 62° |
| 2026-05-05 09:24 | 44.18658 | 88.06820 | 39049 ft | 521 kts | 75° |
| 2026-05-05 09:25 | 44.20200 | 88.16715 | 39051 ft | 523 kts | 78° |
| 2026-05-05 09:25 | 44.21611 | 88.26599 | 39051 ft | 523 kts | 78° |
| 2026-05-05 09:26 | 44.23053 | 88.36616 | 39049 ft | 524 kts | 77° |
| 2026-05-05 09:26 | 44.24496 | 88.46506 | 39045 ft | 524 kts | 77° |
| 2026-05-05 09:27 | 44.25952 | 88.56480 | 39038 ft | 525 kts | 77° |
| 2026-05-05 09:27 | 44.27402 | 88.66468 | 39033 ft | 525 kts | 78° |
| 2026-05-05 09:28 | 44.28841 | 88.76463 | 39025 ft | 526 kts | 78° |
| 2026-05-05 09:28 | 44.30273 | 88.86480 | 39021 ft | 526 kts | 78° |
| 2026-05-05 09:29 | 44.31697 | 88.96505 | 39014 ft | 527 kts | 78° |
| 2026-05-05 09:29 | 44.33115 | 89.06551 | 39015 ft | 527 kts | 78° |
| 2026-05-05 09:30 | 44.34524 | 89.16605 | 39006 ft | 528 kts | 78° |
| 2026-05-05 09:30 | 44.35926 | 89.26677 | 39004 ft | 528 kts | 78° |
| 2026-05-05 09:31 | 44.37320 | 89.36756 | 39002 ft | 528 kts | 78° |
| 2026-05-05 09:31 | 44.38706 | 89.46845 | 39001 ft | 529 kts | 78° |
| 2026-05-05 09:32 | 44.40083 | 89.56941 | 38998 ft | 529 kts | 78° |
| 2026-05-05 09:32 | 44.41093 | 89.67121 | 38993 ft | 530 kts | 89° |
| 2026-05-05 09:32 | 44.40857 | 89.72250 | 38988 ft | 529 kts | 100° |
| 2026-05-05 09:33 | 44.40069 | 89.77265 | 38991 ft | 527 kts | 106° |
| 2026-05-05 09:33 | 44.38029 | 89.87112 | 38991 ft | 528 kts | 109° |
| 2026-05-05 09:34 | 44.35831 | 89.96913 | 38988 ft | 528 kts | 109° |
| 2026-05-05 09:34 | 44.33658 | 90.06652 | 38986 ft | 529 kts | 109° |
| 2026-05-05 09:35 | 44.31844 | 90.14867 | 38984 ft | 529 kts | 109° |
| 2026-05-05 09:35 | 44.28246 | 90.31179 | 38986 ft | 529 kts | 109° |
| 2026-05-05 09:36 | 44.26072 | 90.40980 | 38989 ft | 529 kts | 109° |
| 2026-05-05 09:36 | 44.23888 | 90.50771 | 38989 ft | 529 kts | 109° |
| 2026-05-05 09:37 | 44.21691 | 90.60573 | 38989 ft | 530 kts | 110° |
| 2026-05-05 09:37 | 44.19844 | 90.68778 | 38989 ft | 530 kts | 110° |
| 2026-05-05 09:38 | 44.17642 | 90.78519 | 38989 ft | 531 kts | 110° |
| 2026-05-05 09:38 | 44.15418 | 90.88319 | 38991 ft | 531 kts | 110° |
| 2026-05-05 09:39 | 44.13183 | 90.98121 | 38989 ft | 532 kts | 110° |
| 2026-05-05 09:39 | 44.10939 | 91.07934 | 38987 ft | 532 kts | 110° |
| 2026-05-05 09:40 | 44.08685 | 91.17741 | 38987 ft | 532 kts | 110° |
| 2026-05-05 09:40 | 44.06416 | 91.27559 | 38993 ft | 533 kts | 110° |
| 2026-05-05 09:41 | 44.04144 | 91.37351 | 38996 ft | 532 kts | 111° |
| 2026-05-05 09:41 | 44.01865 | 91.47138 | 39002 ft | 532 kts | 111° |
| 2026-05-05 09:42 | 43.99557 | 91.56904 | 38990 ft | 532 kts | 111° |
| 2026-05-05 09:42 | 43.97232 | 91.66665 | 39001 ft | 532 kts | 111° |
| 2026-05-05 09:43 | 43.94906 | 91.76406 | 39002 ft | 532 kts | 111° |
| 2026-05-05 09:43 | 43.92573 | 91.86147 | 39004 ft | 532 kts | 112° |
| 2026-05-05 09:44 | 43.90232 | 91.95887 | 39010 ft | 532 kts | 112° |
| 2026-05-05 09:44 | 43.87884 | 92.05612 | 39009 ft | 532 kts | 112° |
| 2026-05-05 09:45 | 43.85524 | 92.15344 | 39009 ft | 533 kts | 112° |
| 2026-05-05 09:45 | 43.83163 | 92.25035 | 39007 ft | 534 kts | 112° |
| 2026-05-05 09:46 | 43.80761 | 92.34857 | 39002 ft | 536 kts | 112° |
| 2026-05-05 09:46 | 43.78375 | 92.44567 | 39008 ft | 537 kts | 113° |
| 2026-05-05 09:47 | 43.75957 | 92.54368 | 39007 ft | 539 kts | 113° |
| 2026-05-05 09:47 | 43.73526 | 92.64179 | 39007 ft | 540 kts | 113° |
| 2026-05-05 09:48 | 43.71084 | 92.73994 | 39004 ft | 540 kts | 113° |
| 2026-05-05 09:48 | 43.68632 | 92.83807 | 39008 ft | 541 kts | 113° |
| 2026-05-05 09:49 | 43.66171 | 92.93618 | 39007 ft | 541 kts | 114° |
| 2026-05-05 09:49 | 43.63716 | 93.03439 | 39010 ft | 542 kts | 113° |
| 2026-05-05 09:50 | 43.61356 | 93.13334 | 39008 ft | 543 kts | 112° |
| 2026-05-05 09:50 | 43.59011 | 93.23228 | 39009 ft | 543 kts | 112° |
| 2026-05-05 09:51 | 43.56637 | 93.33133 | 39005 ft | 544 kts | 113° |
| 2026-05-05 09:51 | 43.54246 | 93.43019 | 38995 ft | 544 kts | 113° |
| 2026-05-05 09:52 | 43.51842 | 93.52899 | 38992 ft | 544 kts | 113° |
| 2026-05-05 09:52 | 43.49428 | 93.62781 | 38993 ft | 544 kts | 113° |
| 2026-05-05 09:53 | 43.47020 | 93.72602 | 38990 ft | 544 kts | 114° |
| 2026-05-05 09:53 | 43.44590 | 93.82470 | 38994 ft | 544 kts | 114° |
| 2026-05-05 09:54 | 43.42152 | 93.92325 | 39000 ft | 544 kts | 114° |
| 2026-05-05 09:54 | 43.39700 | 94.02189 | 39000 ft | 545 kts | 114° |
| 2026-05-05 09:55 | 43.37243 | 94.12044 | 38999 ft | 545 kts | 114° |
| 2026-05-05 09:55 | 43.34778 | 94.21886 | 38998 ft | 545 kts | 114° |
| 2026-05-05 09:56 | 43.32299 | 94.31737 | 38997 ft | 546 kts | 114° |
| 2026-05-05 09:56 | 43.29807 | 94.41594 | 38995 ft | 546 kts | 115° |
| 2026-05-05 09:57 | 43.27308 | 94.51443 | 38989 ft | 546 kts | 115° |
| 2026-05-05 09:57 | 43.24801 | 94.61281 | 38978 ft | 546 kts | 115° |
| 2026-05-05 09:58 | 43.22287 | 94.71110 | 38963 ft | 546 kts | 115° |
| 2026-05-05 09:58 | 43.19763 | 94.80935 | 38948 ft | 547 kts | 115° |
| 2026-05-05 09:59 | 43.17223 | 94.90778 | 38936 ft | 548 kts | 115° |
| 2026-05-05 09:59 | 43.14636 | 95.00583 | 38911 ft | 545 kts | 120° |
| 2026-05-05 10:00 | 43.10794 | 95.09194 | 39004 ft | 524 kts | 140° |
| 2026-05-05 10:00 | 43.08170 | 95.12646 | 39177 ft | 509 kts | 152° |
| 2026-05-05 10:00 | 43.05398 | 95.15500 | 39352 ft | 505 kts | 154° |
| 2026-05-05 10:01 | 43.02527 | 95.18240 | 39488 ft | 503 kts | 155° |
| 2026-05-05 10:01 | 42.99623 | 95.20911 | 39624 ft | 503 kts | 155° |
| 2026-05-05 10:01 | 42.96701 | 95.23566 | 39789 ft | 504 kts | 155° |
| 2026-05-05 10:01 | 42.93791 | 95.26214 | 39949 ft | 504 kts | 155° |
| 2026-05-05 10:02 | 42.90873 | 95.28883 | 40104 ft | 505 kts | 155° |
| 2026-05-05 10:02 | 42.87960 | 95.31561 | 40244 ft | 506 kts | 155° |
| 2026-05-05 10:02 | 42.85045 | 95.34251 | 40405 ft | 506 kts | 154° |
| 2026-05-05 10:02 | 42.82138 | 95.36938 | 40553 ft | 506 kts | 154° |
| 2026-05-05 10:03 | 42.79222 | 95.39634 | 40704 ft | 506 kts | 154° |
| 2026-05-05 10:03 | 42.76310 | 95.42324 | 40840 ft | 506 kts | 154° |
| 2026-05-05 10:03 | 42.70449 | 95.47723 | 40880 ft | 509 kts | 154° |
| 2026-05-05 10:04 | 42.64601 | 95.53103 | 40884 ft | 508 kts | 154° |
| 2026-05-05 10:04 | 42.58745 | 95.58476 | 40880 ft | 507 kts | 154° |
| 2026-05-05 10:05 | 42.52915 | 95.63812 | 40880 ft | 505 kts | 154° |
| 2026-05-05 10:05 | 42.47112 | 95.69177 | 40881 ft | 507 kts | 150° |
| 2026-05-05 10:06 | 42.42084 | 95.76065 | 40892 ft | 526 kts | 131° |
| 2026-05-05 10:06 | 42.40233 | 95.80379 | 40893 ft | 536 kts | 120° |
| 2026-05-05 10:06 | 42.38980 | 95.85167 | 40895 ft | 545 kts | 108° |
| 2026-05-05 10:07 | 42.38395 | 95.90255 | 40906 ft | 551 kts | 97° |
| 2026-05-05 10:07 | 42.38158 | 95.95429 | 40899 ft | 553 kts | 95° |
| 2026-05-05 10:07 | 42.37934 | 96.05853 | 40897 ft | 555 kts | 94° |
| 2026-05-05 10:08 | 42.37731 | 96.16297 | 40895 ft | 556 kts | 95° |
| 2026-05-05 10:08 | 42.37459 | 96.26750 | 40894 ft | 556 kts | 95° |
| 2026-05-05 10:09 | 42.37145 | 96.37125 | 40889 ft | 556 kts | 95° |
| 2026-05-05 10:09 | 42.36814 | 96.47577 | 40883 ft | 557 kts | 95° |
| 2026-05-05 10:10 | 42.36474 | 96.58050 | 40878 ft | 557 kts | 95° |
| 2026-05-05 10:10 | 42.36127 | 96.68515 | 40870 ft | 558 kts | 95° |
| 2026-05-05 10:11 | 42.35771 | 96.78996 | 40866 ft | 558 kts | 95° |
| 2026-05-05 10:11 | 42.35405 | 96.89482 | 40856 ft | 559 kts | 95° |
| 2026-05-05 10:12 | 42.35029 | 96.99971 | 40848 ft | 559 kts | 95° |
| 2026-05-05 10:12 | 42.34643 | 97.10464 | 40843 ft | 559 kts | 96° |
| 2026-05-05 10:13 | 42.34247 | 97.20963 | 40840 ft | 560 kts | 96° |
| 2026-05-05 10:13 | 42.33842 | 97.31471 | 40828 ft | 560 kts | 96° |
| 2026-05-05 10:14 | 42.33427 | 97.41965 | 40824 ft | 560 kts | 96° |
| 2026-05-05 10:14 | 42.33003 | 97.52469 | 40816 ft | 559 kts | 96° |
| 2026-05-05 10:15 | 42.32569 | 97.62969 | 40809 ft | 560 kts | 96° |
| 2026-05-05 10:15 | 42.32125 | 97.73462 | 40806 ft | 560 kts | 96° |
| 2026-05-05 10:16 | 42.31672 | 97.83962 | 40799 ft | 560 kts | 96° |
| 2026-05-05 10:16 | 42.31209 | 97.94455 | 40793 ft | 560 kts | 96° |
| 2026-05-05 10:17 | 42.30736 | 98.04958 | 40790 ft | 560 kts | 96° |
| 2026-05-05 10:17 | 42.30254 | 98.15451 | 40787 ft | 560 kts | 96° |
| 2026-05-05 10:18 | 42.29761 | 98.25965 | 40786 ft | 561 kts | 96° |
| 2026-05-05 10:18 | 42.29259 | 98.36478 | 40778 ft | 561 kts | 96° |
| 2026-05-05 10:19 | 42.28721 | 98.46984 | 40776 ft | 561 kts | 96° |
| 2026-05-05 10:19 | 42.28164 | 98.57510 | 40777 ft | 562 kts | 96° |
| 2026-05-05 10:20 | 42.27602 | 98.68029 | 40773 ft | 562 kts | 97° |
| 2026-05-05 10:20 | 42.27038 | 98.78479 | 40765 ft | 562 kts | 97° |
| 2026-05-05 10:21 | 42.26462 | 98.88998 | 40768 ft | 562 kts | 97° |
| 2026-05-05 10:21 | 42.25874 | 98.99538 | 40765 ft | 563 kts | 97° |
| 2026-05-05 10:22 | 42.25276 | 99.10077 | 40758 ft | 564 kts | 97° |
| 2026-05-05 10:22 | 42.24666 | 99.20650 | 40758 ft | 565 kts | 97° |
| 2026-05-05 10:23 | 42.24047 | 99.31233 | 40746 ft | 566 kts | 97° |
| 2026-05-05 10:23 | 42.23416 | 99.41837 | 40742 ft | 567 kts | 97° |
| 2026-05-05 10:24 | 42.22775 | 99.52444 | 40732 ft | 568 kts | 97° |
| 2026-05-05 10:24 | 42.22230 | 99.61337 | 40726 ft | 568 kts | 97° |
| 2026-05-05 10:25 | 42.21570 | 99.71958 | 40718 ft | 568 kts | 97° |
| 2026-05-05 10:25 | 42.20905 | 99.82509 | 40713 ft | 568 kts | 97° |
| 2026-05-05 10:26 | 42.20226 | 99.93112 | 40703 ft | 568 kts | 97° |
| 2026-05-05 10:26 | 42.19537 | 100.03722 | 40697 ft | 567 kts | 97° |
| 2026-05-05 10:27 | 42.18839 | 100.14311 | 40692 ft | 567 kts | 97° |
| 2026-05-05 10:27 | 42.18132 | 100.24902 | 40696 ft | 567 kts | 97° |
| 2026-05-05 10:28 | 42.17415 | 100.35477 | 40693 ft | 567 kts | 97° |
| 2026-05-05 10:28 | 42.16688 | 100.46066 | 40689 ft | 567 kts | 97° |
| 2026-05-05 10:29 | 42.15951 | 100.56643 | 40687 ft | 567 kts | 97° |
| 2026-05-05 10:29 | 42.15204 | 100.67228 | 40680 ft | 568 kts | 97° |
| 2026-05-05 10:30 | 42.14446 | 100.77831 | 40678 ft | 568 kts | 97° |
| 2026-05-05 10:30 | 42.13678 | 100.88432 | 40677 ft | 569 kts | 97° |
| 2026-05-05 10:31 | 42.12899 | 100.99046 | 40670 ft | 570 kts | 97° |
| 2026-05-05 10:31 | 42.11171 | 101.09382 | 40665 ft | 564 kts | 111° |
| 2026-05-05 10:32 | 42.08657 | 101.19391 | 40660 ft | 564 kts | 113° |
| 2026-05-05 10:32 | 42.06008 | 101.29329 | 40653 ft | 565 kts | 114° |
| 2026-05-05 10:33 | 42.03350 | 101.39269 | 40645 ft | 564 kts | 113° |
| 2026-05-05 10:33 | 42.00708 | 101.49215 | 40639 ft | 564 kts | 113° |
| 2026-05-05 10:34 | 41.98069 | 101.59154 | 40632 ft | 565 kts | 113° |
| 2026-05-05 10:34 | 41.95424 | 101.69075 | 40627 ft | 565 kts | 113° |
| 2026-05-05 10:35 | 41.92762 | 101.79017 | 40620 ft | 565 kts | 113° |
| 2026-05-05 10:35 | 41.90093 | 101.88941 | 40620 ft | 565 kts | 113° |
| 2026-05-05 10:36 | 41.87413 | 101.98865 | 40617 ft | 565 kts | 113° |
| 2026-05-05 10:36 | 41.84727 | 102.08769 | 40614 ft | 565 kts | 113° |
| 2026-05-05 10:37 | 41.82030 | 102.18678 | 40612 ft | 566 kts | 113° |
| 2026-05-05 10:37 | 41.79326 | 102.28572 | 40611 ft | 566 kts | 113° |
| 2026-05-05 10:38 | 41.76627 | 102.38407 | 40606 ft | 566 kts | 113° |
| 2026-05-05 10:38 | 41.73887 | 102.48354 | 40605 ft | 566 kts | 113° |
| 2026-05-05 10:39 | 41.71154 | 102.58234 | 40598 ft | 566 kts | 113° |
| 2026-05-05 10:39 | 41.68418 | 102.68090 | 40597 ft | 566 kts | 113° |
| 2026-05-05 10:40 | 41.65675 | 102.77952 | 40594 ft | 566 kts | 113° |
| 2026-05-05 10:40 | 41.62919 | 102.87799 | 40591 ft | 566 kts | 113° |
| 2026-05-05 10:41 | 41.60153 | 102.97640 | 40584 ft | 566 kts | 113° |
| 2026-05-05 10:41 | 41.57388 | 103.07462 | 40592 ft | 566 kts | 113° |
| 2026-05-05 10:42 | 41.53220 | 103.22153 | 40577 ft | 566 kts | 113° |
| 2026-05-05 10:43 | 41.50424 | 103.31963 | 40572 ft | 566 kts | 113° |
| 2026-05-05 10:43 | 41.47618 | 103.41774 | 40579 ft | 566 kts | 114° |
| 2026-05-05 10:44 | 41.44807 | 103.51569 | 40580 ft | 566 kts | 114° |
| 2026-05-05 10:44 | 41.41981 | 103.61378 | 40576 ft | 567 kts | 114° |
| 2026-05-05 10:45 | 41.39149 | 103.71172 | 40577 ft | 567 kts | 114° |
| 2026-05-05 10:45 | 41.36302 | 103.80979 | 40575 ft | 568 kts | 114° |
| 2026-05-05 10:46 | 41.33445 | 103.90785 | 40576 ft | 568 kts | 114° |
| 2026-05-05 10:46 | 41.30580 | 104.00579 | 40570 ft | 569 kts | 114° |
| 2026-05-05 10:47 | 41.27702 | 104.10379 | 40571 ft | 569 kts | 114° |
| 2026-05-05 10:47 | 41.24817 | 104.20170 | 40575 ft | 569 kts | 114° |
| 2026-05-05 10:48 | 41.21920 | 104.29961 | 40574 ft | 569 kts | 114° |
| 2026-05-05 10:48 | 41.19018 | 104.39733 | 40575 ft | 569 kts | 114° |
| 2026-05-05 10:49 | 41.16112 | 104.49484 | 40576 ft | 568 kts | 114° |
| 2026-05-05 10:49 | 41.13199 | 104.59223 | 40581 ft | 568 kts | 114° |
| 2026-05-05 10:50 | 41.10299 | 104.68882 | 40584 ft | 567 kts | 114° |
| 2026-05-05 10:50 | 41.07259 | 104.78507 | 40593 ft | 564 kts | 117° |
| 2026-05-05 10:51 | 41.04007 | 104.87945 | 40586 ft | 563 kts | 117° |
| 2026-05-05 10:51 | 41.00747 | 104.97363 | 40591 ft | 562 kts | 117° |
| 2026-05-05 10:52 | 40.97522 | 105.06792 | 40589 ft | 562 kts | 117° |
| 2026-05-05 10:52 | 40.94311 | 105.16215 | 40586 ft | 562 kts | 117° |
| 2026-05-05 10:53 | 40.91096 | 105.25628 | 40585 ft | 561 kts | 117° |
| 2026-05-05 10:53 | 40.87874 | 105.35026 | 40586 ft | 561 kts | 117° |
| 2026-05-05 10:54 | 40.84641 | 105.44419 | 40584 ft | 561 kts | 117° |
| 2026-05-05 10:54 | 40.81401 | 105.53801 | 40583 ft | 562 kts | 117° |
| 2026-05-05 10:55 | 40.78149 | 105.63185 | 40580 ft | 562 kts | 117° |
| 2026-05-05 10:55 | 40.74887 | 105.72567 | 40575 ft | 562 kts | 117° |
| 2026-05-05 10:56 | 40.71621 | 105.81929 | 40576 ft | 563 kts | 117° |
| 2026-05-05 10:56 | 40.68340 | 105.91302 | 40573 ft | 563 kts | 117° |
| 2026-05-05 10:57 | 40.65052 | 106.00666 | 40568 ft | 564 kts | 117° |
| 2026-05-05 10:57 | 40.61753 | 106.10029 | 40564 ft | 564 kts | 117° |
| 2026-05-05 10:58 | 40.58442 | 106.19393 | 40555 ft | 565 kts | 117° |
| 2026-05-05 10:58 | 40.55122 | 106.28756 | 40551 ft | 565 kts | 117° |
| 2026-05-05 10:59 | 40.51815 | 106.38053 | 40536 ft | 565 kts | 117° |
| 2026-05-05 10:59 | 40.48477 | 106.47405 | 40530 ft | 565 kts | 117° |
| 2026-05-05 11:00 | 40.45129 | 106.56752 | 40524 ft | 566 kts | 117° |
| 2026-05-05 11:00 | 40.41770 | 106.66102 | 40523 ft | 566 kts | 117° |
| 2026-05-05 11:01 | 40.38408 | 106.75429 | 40524 ft | 566 kts | 117° |
| 2026-05-05 11:01 | 40.35032 | 106.84767 | 40523 ft | 566 kts | 117° |
| 2026-05-05 11:02 | 40.32207 | 106.94391 | 40531 ft | 568 kts | 102° |
| 2026-05-05 11:02 | 40.31682 | 106.99511 | 40536 ft | 566 kts | 89° |
| 2026-05-05 11:02 | 40.31868 | 107.04636 | 40543 ft | 562 kts | 80° |
| 2026-05-05 11:03 | 40.32988 | 107.14752 | 40539 ft | 561 kts | 76° |
| 2026-05-05 11:03 | 40.34320 | 107.24826 | 40538 ft | 562 kts | 76° |
| 2026-05-05 11:04 | 40.35624 | 107.34929 | 40541 ft | 562 kts | 76° |
| 2026-05-05 11:04 | 40.36873 | 107.45046 | 40546 ft | 562 kts | 77° |
| 2026-05-05 11:05 | 40.38095 | 107.55171 | 40542 ft | 562 kts | 77° |
| 2026-05-05 11:05 | 40.39299 | 107.65236 | 40543 ft | 562 kts | 77° |
| 2026-05-05 11:06 | 40.40505 | 107.75372 | 40541 ft | 562 kts | 77° |
| 2026-05-05 11:06 | 40.41703 | 107.85503 | 40541 ft | 562 kts | 77° |
| 2026-05-05 11:07 | 40.42891 | 107.95634 | 40539 ft | 562 kts | 77° |
| 2026-05-05 11:07 | 40.44071 | 108.05764 | 40544 ft | 561 kts | 77° |
| 2026-05-05 11:08 | 40.45237 | 108.15901 | 40542 ft | 561 kts | 77° |
| 2026-05-05 11:08 | 40.46393 | 108.26027 | 40527 ft | 561 kts | 77° |
| 2026-05-05 11:09 | 40.47539 | 108.36148 | 40533 ft | 560 kts | 77° |
| 2026-05-05 11:09 | 40.48676 | 108.46267 | 40551 ft | 560 kts | 77° |
| 2026-05-05 11:10 | 40.49805 | 108.56387 | 40540 ft | 560 kts | 77° |
| 2026-05-05 11:10 | 40.50923 | 108.66500 | 40546 ft | 559 kts | 77° |
| 2026-05-05 11:11 | 40.52033 | 108.76613 | 40553 ft | 559 kts | 77° |
| 2026-05-05 11:11 | 40.53134 | 108.86728 | 40547 ft | 559 kts | 77° |
| 2026-05-05 11:12 | 40.54041 | 108.95133 | 40549 ft | 559 kts | 77° |
| 2026-05-05 11:12 | 40.55126 | 109.05254 | 40554 ft | 559 kts | 77° |
| 2026-05-05 11:13 | 40.56200 | 109.15366 | 40549 ft | 558 kts | 77° |
| 2026-05-05 11:13 | 40.57265 | 109.25480 | 40557 ft | 558 kts | 77° |
| 2026-05-05 11:14 | 40.58322 | 109.35603 | 40561 ft | 558 kts | 77° |
| 2026-05-05 11:14 | 40.59369 | 109.45722 | 40561 ft | 558 kts | 77° |
| 2026-05-05 11:15 | 40.60408 | 109.55850 | 40563 ft | 558 kts | 77° |
| 2026-05-05 11:15 | 40.61437 | 109.65966 | 40568 ft | 558 kts | 77° |
| 2026-05-05 11:16 | 40.62458 | 109.76093 | 40572 ft | 558 kts | 77° |
| 2026-05-05 11:16 | 40.63471 | 109.86231 | 40576 ft | 558 kts | 77° |
| 2026-05-05 11:17 | 40.64453 | 109.96377 | 40578 ft | 560 kts | 80° |
| 2026-05-05 11:17 | 40.64665 | 110.06688 | 40584 ft | 564 kts | 85° |
| 2026-05-05 11:18 | 40.64628 | 110.17024 | 40587 ft | 564 kts | 86° |
| 2026-05-05 11:18 | 40.64542 | 110.27354 | 40596 ft | 565 kts | 86° |
| 2026-05-05 11:19 | 40.64457 | 110.37690 | 40607 ft | 565 kts | 86° |
| 2026-05-05 11:19 | 40.64381 | 110.48022 | 40608 ft | 564 kts | 86° |
| 2026-05-05 11:20 | 40.64301 | 110.58354 | 40631 ft | 564 kts | 86° |
| 2026-05-05 11:20 | 40.64201 | 110.68667 | 40620 ft | 563 kts | 86° |
| 2026-05-05 11:21 | 40.64094 | 110.78908 | 40620 ft | 563 kts | 86° |
| 2026-05-05 11:21 | 40.63978 | 110.89221 | 40610 ft | 563 kts | 86° |
| 2026-05-05 11:22 | 40.63860 | 110.99533 | 40611 ft | 563 kts | 86° |
| 2026-05-05 11:22 | 40.63730 | 111.09851 | 40616 ft | 563 kts | 86° |
| 2026-05-05 11:23 | 40.63592 | 111.20161 | 40623 ft | 563 kts | 86° |
| 2026-05-05 11:23 | 40.63446 | 111.30469 | 40615 ft | 563 kts | 86° |
| 2026-05-05 11:24 | 40.63285 | 111.40788 | 40622 ft | 564 kts | 86° |
| 2026-05-05 11:24 | 40.63116 | 111.51102 | 40631 ft | 564 kts | 87° |
| 2026-05-05 11:25 | 40.62939 | 111.61411 | 40638 ft | 564 kts | 87° |
| 2026-05-05 11:25 | 40.62753 | 111.71720 | 40650 ft | 563 kts | 87° |
| 2026-05-05 11:26 | 40.62559 | 111.82030 | 40647 ft | 563 kts | 87° |
| 2026-05-05 11:26 | 40.62360 | 111.92345 | 40655 ft | 563 kts | 86° |
| 2026-05-05 11:27 | 40.62162 | 112.02648 | 40654 ft | 563 kts | 87° |
| 2026-05-05 11:27 | 40.61932 | 112.12884 | 40654 ft | 563 kts | 87° |
| 2026-05-05 11:28 | 40.61691 | 112.23188 | 40660 ft | 563 kts | 87° |
| 2026-05-05 11:28 | 40.61444 | 112.33558 | 40630 ft | 562 kts | 87° |
| 2026-05-05 11:29 | 40.61195 | 112.43775 | 40662 ft | 563 kts | 87° |
| 2026-05-05 11:29 | 40.60907 | 112.54072 | 40663 ft | 563 kts | 89° |
| 2026-05-05 11:30 | 40.60314 | 112.64364 | 40657 ft | 565 kts | 91° |
| 2026-05-05 11:30 | 40.59639 | 112.74658 | 40655 ft | 565 kts | 90° |
| 2026-05-05 11:31 | 40.58802 | 112.84951 | 40653 ft | 566 kts | 92° |
| 2026-05-05 11:31 | 40.58041 | 112.95239 | 40644 ft | 565 kts | 91° |
| 2026-05-05 11:32 | 40.57363 | 113.05519 | 40645 ft | 564 kts | 90° |
| 2026-05-05 11:32 | 40.56684 | 113.15794 | 40645 ft | 564 kts | 90° |
| 2026-05-05 11:33 | 40.55987 | 113.26068 | 40636 ft | 564 kts | 91° |
| 2026-05-05 11:33 | 40.55274 | 113.36325 | 40628 ft | 563 kts | 91° |
| 2026-05-05 11:34 | 40.54552 | 113.46574 | 40632 ft | 563 kts | 91° |
| 2026-05-05 11:34 | 40.53821 | 113.56811 | 40627 ft | 562 kts | 91° |
| 2026-05-05 11:35 | 40.53082 | 113.67037 | 40627 ft | 562 kts | 91° |
| 2026-05-05 11:35 | 40.52335 | 113.77252 | 40608 ft | 561 kts | 91° |
| 2026-05-05 11:36 | 40.51575 | 113.87445 | 40616 ft | 560 kts | 91° |
| 2026-05-05 11:36 | 40.50817 | 113.97558 | 40603 ft | 559 kts | 91° |
| 2026-05-05 11:37 | 40.50194 | 114.07714 | 40610 ft | 557 kts | 89° |
| 2026-05-05 11:37 | 40.49831 | 114.17855 | 40610 ft | 555 kts | 88° |
| 2026-05-05 11:38 | 40.49462 | 114.27971 | 40611 ft | 554 kts | 89° |
| 2026-05-05 11:38 | 40.49039 | 114.38066 | 40609 ft | 553 kts | 89° |
| 2026-05-05 11:39 | 40.48585 | 114.48145 | 40613 ft | 552 kts | 89° |
| 2026-05-05 11:39 | 40.48121 | 114.58197 | 40616 ft | 551 kts | 89° |
| 2026-05-05 11:40 | 40.47650 | 114.68224 | 40616 ft | 550 kts | 89° |
| 2026-05-05 11:40 | 40.47173 | 114.78255 | 40616 ft | 549 kts | 90° |
| 2026-05-05 11:41 | 40.46687 | 114.88277 | 40620 ft | 549 kts | 90° |
| 2026-05-05 11:41 | 40.46193 | 114.98278 | 40620 ft | 548 kts | 90° |
| 2026-05-05 11:42 | 40.45693 | 115.08248 | 40625 ft | 547 kts | 90° |
| 2026-05-05 11:42 | 40.45183 | 115.18194 | 40616 ft | 545 kts | 90° |
| 2026-05-05 11:43 | 40.44667 | 115.28126 | 40630 ft | 545 kts | 90° |
| 2026-05-05 11:43 | 40.44145 | 115.38033 | 40634 ft | 543 kts | 90° |
| 2026-05-05 11:44 | 40.43617 | 115.47916 | 40642 ft | 542 kts | 90° |
| 2026-05-05 11:44 | 40.43058 | 115.57727 | 40647 ft | 543 kts | 92° |
| 2026-05-05 11:45 | 40.42261 | 115.67583 | 40650 ft | 543 kts | 94° |
| 2026-05-05 11:45 | 40.41401 | 115.77425 | 40650 ft | 542 kts | 93° |
| 2026-05-05 11:46 | 40.40566 | 115.87252 | 40653 ft | 542 kts | 93° |
| 2026-05-05 11:46 | 40.39748 | 115.97082 | 40657 ft | 542 kts | 93° |
| 2026-05-05 11:47 | 40.38928 | 116.06902 | 40654 ft | 542 kts | 93° |
| 2026-05-05 11:47 | 40.38098 | 116.16719 | 40653 ft | 541 kts | 93° |
| 2026-05-05 11:48 | 40.36839 | 116.31423 | 40662 ft | 540 kts | 94° |
| 2026-05-05 11:48 | 40.35990 | 116.41197 | 40656 ft | 539 kts | 94° |
| 2026-05-05 11:49 | 40.35134 | 116.50960 | 40650 ft | 539 kts | 94° |
| 2026-05-05 11:49 | 40.34165 | 116.60713 | 40656 ft | 541 kts | 100° |
| 2026-05-05 11:50 | 40.31493 | 116.69896 | 40651 ft | 542 kts | 122° |
| 2026-05-05 11:50 | 40.29270 | 116.73868 | 40654 ft | 540 kts | 134° |
| 2026-05-05 11:50 | 40.26528 | 116.77214 | 40652 ft | 536 kts | 146° |
| 2026-05-05 11:51 | 40.23392 | 116.79804 | 40653 ft | 531 kts | 157° |
| 2026-05-05 11:51 | 40.19994 | 116.81572 | 40649 ft | 524 kts | 169° |
| 2026-05-05 11:51 | 40.16444 | 116.82502 | 40649 ft | 516 kts | 180° |
| 2026-05-05 11:51 | 40.12896 | 116.82597 | 40648 ft | 507 kts | 191° |
| 2026-05-05 11:52 | 40.06015 | 116.81319 | 40645 ft | 507 kts | 190° |
| 2026-05-05 11:52 | 39.98839 | 116.81698 | 40646 ft | 517 kts | 178° |
| 2026-05-05 11:53 | 39.91689 | 116.82992 | 40653 ft | 520 kts | 176° |
| 2026-05-05 11:53 | 39.84532 | 116.84474 | 40661 ft | 521 kts | 176° |
| 2026-05-05 11:54 | 39.77422 | 116.85942 | 40666 ft | 521 kts | 176° |
| 2026-05-05 11:54 | 39.70261 | 116.87438 | 40666 ft | 521 kts | 176° |
| 2026-05-05 11:55 | 39.63100 | 116.88929 | 40663 ft | 522 kts | 176° |
| 2026-05-05 11:55 | 39.55923 | 116.90414 | 40670 ft | 522 kts | 176° |
| 2026-05-05 11:56 | 39.48745 | 116.91892 | 40670 ft | 522 kts | 176° |
| 2026-05-05 11:56 | 39.41565 | 116.93368 | 40671 ft | 523 kts | 175° |
| 2026-05-05 11:57 | 39.34383 | 116.94841 | 40671 ft | 523 kts | 175° |
| 2026-05-05 11:57 | 39.27197 | 116.96313 | 40674 ft | 523 kts | 175° |
| 2026-05-05 11:58 | 39.20125 | 116.98656 | 40678 ft | 531 kts | 160° |
| 2026-05-05 11:58 | 39.16841 | 117.00879 | 40684 ft | 536 kts | 149° |
| 2026-05-05 11:58 | 39.13900 | 117.03852 | 40684 ft | 538 kts | 137° |
| 2026-05-05 11:59 | 39.11442 | 117.07481 | 40686 ft | 539 kts | 125° |
| 2026-05-05 11:59 | 39.09555 | 117.11634 | 40687 ft | 538 kts | 113° |
| 2026-05-05 11:59 | 39.08303 | 117.16148 | 40689 ft | 535 kts | 101° |
| 2026-05-05 11:59 | 39.07715 | 117.20852 | 40690 ft | 530 kts | 90° |
| 2026-05-05 12:00 | 39.07793 | 117.25560 | 40696 ft | 524 kts | 78° |
| 2026-05-05 12:00 | 39.08092 | 117.30243 | 40701 ft | 528 kts | 85° |
| 2026-05-05 12:00 | 39.07769 | 117.38118 | 40691 ft | 530 kts | 87° |
| 2026-05-05 12:01 | 39.07753 | 117.49179 | 40697 ft | 530 kts | 87° |
| 2026-05-05 12:01 | 39.07661 | 117.57061 | 40698 ft | 530 kts | 87° |
| 2026-05-05 12:02 | 39.07545 | 117.66544 | 40709 ft | 530 kts | 87° |
| 2026-05-05 12:02 | 39.07424 | 117.76029 | 40718 ft | 530 kts | 88° |
| 2026-05-05 12:03 | 39.07296 | 117.85507 | 40728 ft | 529 kts | 88° |
| 2026-05-05 12:03 | 39.07161 | 117.94975 | 40734 ft | 529 kts | 88° |
| 2026-05-05 12:04 | 39.06768 | 118.04424 | 40739 ft | 532 kts | 97° |
| 2026-05-05 12:04 | 39.05452 | 118.13790 | 40743 ft | 532 kts | 99° |
| 2026-05-05 12:05 | 39.03963 | 118.23107 | 40751 ft | 532 kts | 99° |
| 2026-05-05 12:05 | 39.02448 | 118.32418 | 40749 ft | 531 kts | 99° |
| 2026-05-05 12:06 | 39.00943 | 118.41722 | 40755 ft | 531 kts | 99° |
| 2026-05-05 12:06 | 38.99444 | 118.51019 | 40761 ft | 531 kts | 99° |
| 2026-05-05 12:07 | 38.97947 | 118.60300 | 40765 ft | 530 kts | 99° |
| 2026-05-05 12:07 | 38.96433 | 118.69576 | 40765 ft | 530 kts | 99° |
| 2026-05-05 12:08 | 38.94914 | 118.78839 | 40767 ft | 530 kts | 99° |
| 2026-05-05 12:08 | 38.93390 | 118.88092 | 40773 ft | 529 kts | 99° |
| 2026-05-05 12:09 | 38.91861 | 118.97332 | 40775 ft | 529 kts | 99° |
| 2026-05-05 12:09 | 38.90328 | 119.06562 | 40780 ft | 528 kts | 99° |
| 2026-05-05 12:10 | 38.88787 | 119.15776 | 40783 ft | 528 kts | 99° |
| 2026-05-05 12:10 | 38.87235 | 119.24977 | 40785 ft | 528 kts | 99° |
| 2026-05-05 12:11 | 38.85688 | 119.34114 | 40787 ft | 528 kts | 99° |
| 2026-05-05 12:11 | 38.84124 | 119.43313 | 40792 ft | 527 kts | 99° |
| 2026-05-05 12:12 | 38.82554 | 119.52505 | 40793 ft | 527 kts | 100° |
| 2026-05-05 12:12 | 38.80980 | 119.61676 | 40793 ft | 527 kts | 100° |
| 2026-05-05 12:13 | 38.79395 | 119.70859 | 40796 ft | 527 kts | 100° |
| 2026-05-05 12:13 | 38.77805 | 119.80028 | 40800 ft | 527 kts | 100° |
| 2026-05-05 12:14 | 38.76238 | 119.89193 | 40802 ft | 526 kts | 99° |
| 2026-05-05 12:14 | 38.74736 | 119.98367 | 40806 ft | 526 kts | 99° |
| 2026-05-05 12:15 | 38.73200 | 120.07530 | 40801 ft | 527 kts | 101° |
| 2026-05-05 12:15 | 38.72014 | 120.11974 | 40808 ft | 530 kts | 113° |
| 2026-05-05 12:15 | 38.70158 | 120.16040 | 40809 ft | 530 kts | 127° |
| 2026-05-05 12:16 | 38.67645 | 120.19474 | 40810 ft | 529 kts | 141° |
| 2026-05-05 12:16 | 38.64593 | 120.22055 | 40813 ft | 525 kts | 156° |
| 2026-05-05 12:16 | 38.57853 | 120.25555 | 40819 ft | 527 kts | 152° |
| 2026-05-05 12:17 | 38.54881 | 120.28292 | 40825 ft | 529 kts | 136° |
| 2026-05-05 12:17 | 38.52504 | 120.31879 | 40819 ft | 528 kts | 121° |
| 2026-05-05 12:17 | 38.50896 | 120.36066 | 40827 ft | 525 kts | 106° |
| 2026-05-05 12:17 | 38.50149 | 120.40581 | 40825 ft | 519 kts | 90° |
| 2026-05-05 12:18 | 38.50300 | 120.45138 | 40826 ft | 510 kts | 75° |
| 2026-05-05 12:18 | 38.51324 | 120.49408 | 40827 ft | 500 kts | 59° |
| 2026-05-05 12:18 | 38.53138 | 120.53128 | 40829 ft | 489 kts | 44° |
| 2026-05-05 12:18 | 38.55569 | 120.56072 | 40839 ft | 480 kts | 32° |
| 2026-05-05 12:19 | 38.60377 | 120.62033 | 40830 ft | 493 kts | 47° |
| 2026-05-05 12:19 | 38.62229 | 120.65750 | 40833 ft | 501 kts | 59° |
| 2026-05-05 12:19 | 38.63486 | 120.69925 | 40833 ft | 509 kts | 71° |
| 2026-05-05 12:20 | 38.64080 | 120.74476 | 40834 ft | 515 kts | 83° |
| 2026-05-05 12:20 | 38.63981 | 120.79011 | 40838 ft | 521 kts | 95° |
| 2026-05-05 12:20 | 38.63212 | 120.83553 | 40839 ft | 525 kts | 106° |
| 2026-05-05 12:20 | 38.61802 | 120.87867 | 40840 ft | 528 kts | 117° |
| 2026-05-05 12:21 | 38.59805 | 120.91799 | 40840 ft | 529 kts | 129° |
| 2026-05-05 12:21 | 38.57281 | 120.95221 | 40843 ft | 528 kts | 140° |
| 2026-05-05 12:21 | 38.51740 | 121.01367 | 40848 ft | 529 kts | 133° |
| 2026-05-05 12:22 | 38.49443 | 121.05039 | 40848 ft | 529 kts | 122° |
| 2026-05-05 12:22 | 38.47682 | 121.09146 | 40845 ft | 527 kts | 111° |
| 2026-05-05 12:22 | 38.45656 | 121.18071 | 40845 ft | 524 kts | 100° |
| 2026-05-05 12:23 | 38.44204 | 121.27177 | 40849 ft | 524 kts | 98° |
| 2026-05-05 12:23 | 38.42819 | 121.36300 | 40854 ft | 524 kts | 99° |
| 2026-05-05 12:24 | 38.41381 | 121.45412 | 40858 ft | 524 kts | 99° |
| 2026-05-05 12:24 | 38.39895 | 121.54506 | 40864 ft | 524 kts | 100° |
| 2026-05-05 12:25 | 38.38368 | 121.63590 | 40866 ft | 524 kts | 100° |
| 2026-05-05 12:25 | 38.36835 | 121.72672 | 40870 ft | 524 kts | 100° |
| 2026-05-05 12:26 | 38.35306 | 121.81731 | 40876 ft | 523 kts | 100° |
| 2026-05-05 12:26 | 38.33769 | 121.90803 | 40884 ft | 523 kts | 100° |
| 2026-05-05 12:27 | 38.32230 | 121.99851 | 40892 ft | 523 kts | 100° |
| 2026-05-05 12:27 | 38.30680 | 122.08911 | 40898 ft | 523 kts | 101° |
| 2026-05-05 12:28 | 38.29126 | 122.17955 | 40903 ft | 523 kts | 101° |
| 2026-05-05 12:28 | 38.27578 | 122.26937 | 40905 ft | 523 kts | 100° |
| 2026-05-05 12:29 | 38.26228 | 122.36024 | 40913 ft | 522 kts | 98° |
| 2026-05-05 12:29 | 38.24017 | 122.44820 | 40915 ft | 525 kts | 117° |
| 2026-05-05 12:30 | 38.22092 | 122.48754 | 40919 ft | 524 kts | 128° |
| 2026-05-05 12:30 | 38.19721 | 122.52274 | 40922 ft | 524 kts | 133° |
| 2026-05-05 12:30 | 38.14612 | 122.58960 | 40923 ft | 524 kts | 136° |
| 2026-05-05 12:31 | 38.09467 | 122.65431 | 40930 ft | 524 kts | 136° |
| 2026-05-05 12:31 | 38.04334 | 122.71994 | 40935 ft | 524 kts | 135° |
| 2026-05-05 12:32 | 37.99238 | 122.78604 | 40941 ft | 524 kts | 135° |
| 2026-05-05 12:32 | 37.94150 | 122.85207 | 40947 ft | 523 kts | 135° |
| 2026-05-05 12:33 | 37.89057 | 122.91795 | 40953 ft | 523 kts | 135° |
| 2026-05-05 12:33 | 37.83961 | 122.98368 | 40956 ft | 523 kts | 135° |
| 2026-05-05 12:34 | 37.78868 | 123.04920 | 40963 ft | 522 kts | 136° |
| 2026-05-05 12:34 | 37.73769 | 123.11466 | 40969 ft | 522 kts | 136° |
| 2026-05-05 12:35 | 37.68677 | 123.17991 | 40971 ft | 522 kts | 136° |
| 2026-05-05 12:35 | 37.63581 | 123.24506 | 40973 ft | 521 kts | 136° |
| 2026-05-05 12:36 | 37.58486 | 123.31009 | 40981 ft | 521 kts | 136° |
| 2026-05-05 12:36 | 37.53852 | 123.38036 | 40987 ft | 521 kts | 128° |
| 2026-05-05 12:37 | 37.49481 | 123.45312 | 40992 ft | 521 kts | 128° |
| 2026-05-05 12:37 | 37.45150 | 123.52619 | 40995 ft | 521 kts | 128° |